DLH7206 EDDF-VRMM
Flight info
| Callsign | DLH7206 |
|---|---|
| Flight time | N/A |
| Altitude | 39000 |
| Route | CINDY8S/18 CINDY Z74 LAMPU DCT NOMBO Y161 MAH L173 OTT M867 RADIZ DCT VEKEN DCT GIRDA DCT EBITA DCT KATTI DCT GARGA DCT LATAN DCT SALUN N705 MMA P751 DASUM Y234 FYM M872 BDB Y214 RAPMA DCT ULONO DCT DAPOL L692 GISKA N569 GOLNI P570 KITAL L894 LELEM LELEM2A |
| Aircraft | A359/H-SDE2E3GHIJ3J4J5LM1ORWXY/LB1D1 |
Departure
| Time | 2026-04-18 10:36 |
|---|---|
| Airport | Frankfurt Main Airport (EDDF) |
Arrival
| Time | N/A |
|---|---|
| Airport | Velana International Airport (VRMM) |
| Time | Latitude | Longitude | Altitude | Speed | Heading |
|---|---|---|---|---|---|
| 2026-04-18 10:09 | 50.04961 | 8.58295 | 366 ft | 0 kts | 339° |
| 2026-04-18 10:18 | 50.04960 | 8.58295 | 365 ft | 0 kts | 339° |
| 2026-04-18 10:26 | 50.04960 | 8.58296 | 365 ft | 1 kts | 339° |
| 2026-04-18 10:26 | 50.04939 | 8.58308 | 368 ft | 4 kts | 339° |
| 2026-04-18 10:26 | 50.04914 | 8.58323 | 365 ft | 4 kts | 340° |
| 2026-04-18 10:26 | 50.04892 | 8.58334 | 366 ft | 4 kts | 5° |
| 2026-04-18 10:27 | 50.04870 | 8.58317 | 366 ft | 4 kts | 54° |
| 2026-04-18 10:27 | 50.04857 | 8.58282 | 366 ft | 4 kts | 68° |
| 2026-04-18 10:27 | 50.04849 | 8.58249 | 366 ft | 1 kts | 69° |
| 2026-04-18 10:27 | 50.04849 | 8.58248 | 366 ft | 0 kts | 69° |
| 2026-04-18 10:31 | 50.04849 | 8.58250 | 366 ft | 1 kts | 69° |
| 2026-04-18 10:31 | 50.04863 | 8.58305 | 366 ft | 10 kts | 69° |
| 2026-04-18 10:31 | 50.04892 | 8.58422 | 366 ft | 12 kts | 69° |
| 2026-04-18 10:32 | 50.04914 | 8.58512 | 366 ft | 0 kts | 69° |
| 2026-04-18 10:32 | 50.04915 | 8.58519 | 366 ft | 3 kts | 69° |
| 2026-04-18 10:32 | 50.04931 | 8.58584 | 366 ft | 8 kts | 72° |
| 2026-04-18 10:32 | 50.04904 | 8.58668 | 367 ft | 9 kts | 149° |
| 2026-04-18 10:33 | 50.04842 | 8.58711 | 370 ft | 10 kts | 158° |
| 2026-04-18 10:33 | 50.04773 | 8.58753 | 373 ft | 11 kts | 159° |
| 2026-04-18 10:33 | 50.04697 | 8.58767 | 376 ft | 11 kts | 185° |
| 2026-04-18 10:33 | 50.04643 | 8.58758 | 376 ft | 0 kts | 189° |
| 2026-04-18 10:34 | 50.04637 | 8.58756 | 376 ft | 3 kts | 189° |
| 2026-04-18 10:34 | 50.04594 | 8.58723 | 377 ft | 10 kts | 215° |
| 2026-04-18 10:34 | 50.04517 | 8.58635 | 377 ft | 17 kts | 217° |
| 2026-04-18 10:35 | 50.04463 | 8.58496 | 376 ft | 18 kts | 251° |
| 2026-04-18 10:35 | 50.04371 | 8.58107 | 373 ft | 75 kts | 250° |
| 2026-04-18 10:35 | 50.04092 | 8.56936 | 368 ft | 153 kts | 249° |
| 2026-04-18 10:35 | 50.03639 | 8.55113 | 670 ft | 195 kts | 246° |
| 2026-04-18 10:36 | 50.03071 | 8.53140 | 1357 ft | 198 kts | 245° |
| 2026-04-18 10:36 | 50.02367 | 8.51252 | 1684 ft | 208 kts | 231° |
| 2026-04-18 10:36 | 50.01629 | 8.50236 | 1889 ft | 214 kts | 211° |
| 2026-04-18 10:36 | 50.00245 | 8.49336 | 2342 ft | 217 kts | 194° |
| 2026-04-18 10:37 | 49.98740 | 8.49318 | 2836 ft | 219 kts | 164° |
| 2026-04-18 10:37 | 49.97463 | 8.50538 | 3298 ft | 222 kts | 131° |
| 2026-04-18 10:37 | 49.96601 | 8.52536 | 3798 ft | 224 kts | 120° |
| 2026-04-18 10:37 | 49.95841 | 8.54710 | 4140 ft | 235 kts | 118° |
| 2026-04-18 10:38 | 49.95038 | 8.57026 | 4339 ft | 252 kts | 119° |
| 2026-04-18 10:38 | 49.94175 | 8.59488 | 4592 ft | 266 kts | 119° |
| 2026-04-18 10:38 | 49.93273 | 8.62037 | 5068 ft | 272 kts | 119° |
| 2026-04-18 10:38 | 49.92352 | 8.64617 | 5597 ft | 275 kts | 120° |
| 2026-04-18 10:39 | 49.91417 | 8.67223 | 6125 ft | 278 kts | 120° |
| 2026-04-18 10:39 | 49.90466 | 8.69861 | 6655 ft | 280 kts | 120° |
| 2026-04-18 10:39 | 49.89515 | 8.72501 | 7153 ft | 283 kts | 120° |
| 2026-04-18 10:39 | 49.88547 | 8.75186 | 7644 ft | 285 kts | 120° |
| 2026-04-18 10:40 | 49.87573 | 8.77884 | 8121 ft | 288 kts | 120° |
| 2026-04-18 10:40 | 49.86589 | 8.80609 | 8606 ft | 290 kts | 120° |
| 2026-04-18 10:40 | 49.85596 | 8.83353 | 9084 ft | 293 kts | 120° |
| 2026-04-18 10:40 | 49.84609 | 8.86078 | 9553 ft | 295 kts | 120° |
| 2026-04-18 10:41 | 49.83600 | 8.88860 | 10026 ft | 297 kts | 120° |
| 2026-04-18 10:41 | 49.82571 | 8.91692 | 10304 ft | 307 kts | 120° |
| 2026-04-18 10:41 | 49.81502 | 8.94632 | 10487 ft | 319 kts | 120° |
| 2026-04-18 10:41 | 49.80397 | 8.97669 | 10666 ft | 330 kts | 120° |
| 2026-04-18 10:42 | 49.79248 | 9.00822 | 10849 ft | 341 kts | 120° |
| 2026-04-18 10:42 | 49.78066 | 9.04065 | 11029 ft | 351 kts | 120° |
| 2026-04-18 10:42 | 49.76862 | 9.07403 | 11210 ft | 360 kts | 118° |
| 2026-04-18 10:42 | 49.75910 | 9.11039 | 11366 ft | 369 kts | 107° |
| 2026-04-18 10:43 | 49.75245 | 9.14922 | 11520 ft | 377 kts | 104° |
| 2026-04-18 10:43 | 49.74332 | 9.18817 | 11645 ft | 384 kts | 118° |
| 2026-04-18 10:43 | 49.72853 | 9.22285 | 11855 ft | 388 kts | 127° |
| 2026-04-18 10:43 | 49.71203 | 9.25432 | 12196 ft | 392 kts | 131° |
| 2026-04-18 10:44 | 49.69383 | 9.28598 | 12613 ft | 394 kts | 133° |
| 2026-04-18 10:44 | 49.67529 | 9.31724 | 13101 ft | 395 kts | 134° |
| 2026-04-18 10:44 | 49.65671 | 9.34856 | 13552 ft | 396 kts | 133° |
| 2026-04-18 10:44 | 49.63820 | 9.38010 | 13976 ft | 398 kts | 133° |
| 2026-04-18 10:45 | 49.61820 | 9.40969 | 14345 ft | 399 kts | 143° |
| 2026-04-18 10:45 | 49.59555 | 9.43481 | 14746 ft | 400 kts | 147° |
| 2026-04-18 10:45 | 49.57232 | 9.45788 | 15124 ft | 402 kts | 149° |
| 2026-04-18 10:45 | 49.54820 | 9.48029 | 15530 ft | 404 kts | 151° |
| 2026-04-18 10:46 | 49.52385 | 9.50222 | 15905 ft | 406 kts | 151° |
| 2026-04-18 10:46 | 49.49928 | 9.52415 | 16308 ft | 408 kts | 151° |
| 2026-04-18 10:46 | 49.47464 | 9.54620 | 16684 ft | 411 kts | 151° |
| 2026-04-18 10:46 | 49.44993 | 9.56841 | 17054 ft | 413 kts | 151° |
| 2026-04-18 10:47 | 49.42509 | 9.59086 | 17436 ft | 415 kts | 151° |
| 2026-04-18 10:47 | 49.40011 | 9.61349 | 17795 ft | 417 kts | 151° |
| 2026-04-18 10:47 | 49.37601 | 9.63535 | 18127 ft | 418 kts | 150° |
| 2026-04-18 10:47 | 49.35099 | 9.65926 | 18310 ft | 420 kts | 145° |
| 2026-04-18 10:48 | 49.32831 | 9.68761 | 18415 ft | 423 kts | 139° |
| 2026-04-18 10:48 | 49.30650 | 9.71834 | 18498 ft | 427 kts | 136° |
| 2026-04-18 10:48 | 49.28510 | 9.75027 | 18574 ft | 431 kts | 135° |
| 2026-04-18 10:48 | 49.26387 | 9.78285 | 18647 ft | 434 kts | 135° |
| 2026-04-18 10:49 | 49.24254 | 9.81587 | 18713 ft | 437 kts | 135° |
| 2026-04-18 10:49 | 49.22109 | 9.84903 | 18785 ft | 440 kts | 135° |
| 2026-04-18 10:49 | 49.19945 | 9.88228 | 18905 ft | 441 kts | 135° |
| 2026-04-18 10:49 | 49.17772 | 9.91547 | 19034 ft | 442 kts | 135° |
| 2026-04-18 10:50 | 49.15587 | 9.94868 | 19155 ft | 443 kts | 135° |
| 2026-04-18 10:50 | 49.13396 | 9.98186 | 19273 ft | 444 kts | 135° |
| 2026-04-18 10:50 | 49.11197 | 10.01509 | 19390 ft | 445 kts | 135° |
| 2026-04-18 10:50 | 49.08991 | 10.04838 | 19503 ft | 446 kts | 135° |
| 2026-04-18 10:51 | 49.06782 | 10.08167 | 19617 ft | 447 kts | 135° |
| 2026-04-18 10:51 | 49.04557 | 10.11493 | 19726 ft | 448 kts | 136° |
| 2026-04-18 10:51 | 49.02284 | 10.14755 | 19833 ft | 449 kts | 137° |
| 2026-04-18 10:51 | 48.99982 | 10.17982 | 19933 ft | 449 kts | 138° |
| 2026-04-18 10:52 | 48.97672 | 10.21194 | 20037 ft | 450 kts | 138° |
| 2026-04-18 10:52 | 48.95354 | 10.24419 | 20138 ft | 451 kts | 138° |
| 2026-04-18 10:52 | 48.93036 | 10.27656 | 20232 ft | 452 kts | 137° |
| 2026-04-18 10:52 | 48.90729 | 10.30896 | 20324 ft | 452 kts | 137° |
| 2026-04-18 10:53 | 48.88419 | 10.34146 | 20417 ft | 453 kts | 137° |
| 2026-04-18 10:53 | 48.86099 | 10.37414 | 20504 ft | 454 kts | 137° |
| 2026-04-18 10:53 | 48.83809 | 10.40637 | 20597 ft | 455 kts | 137° |
| 2026-04-18 10:53 | 48.81468 | 10.43966 | 20686 ft | 455 kts | 136° |
| 2026-04-18 10:54 | 48.79248 | 10.47392 | 20768 ft | 456 kts | 134° |
| 2026-04-18 10:54 | 48.77082 | 10.50918 | 20849 ft | 457 kts | 133° |
| 2026-04-18 10:54 | 48.74956 | 10.54431 | 20926 ft | 457 kts | 133° |
| 2026-04-18 10:54 | 48.72797 | 10.57985 | 20996 ft | 458 kts | 133° |
| 2026-04-18 10:55 | 48.70619 | 10.61542 | 21077 ft | 459 kts | 133° |
| 2026-04-18 10:55 | 48.68430 | 10.65068 | 21152 ft | 459 kts | 134° |
| 2026-04-18 10:55 | 48.66228 | 10.68584 | 21229 ft | 460 kts | 134° |
| 2026-04-18 10:55 | 48.64023 | 10.72093 | 21297 ft | 460 kts | 134° |
| 2026-04-18 10:56 | 48.61801 | 10.75614 | 21372 ft | 461 kts | 134° |
| 2026-04-18 10:56 | 48.59585 | 10.79117 | 21442 ft | 462 kts | 134° |
| 2026-04-18 10:56 | 48.57366 | 10.82626 | 21512 ft | 462 kts | 134° |
| 2026-04-18 10:56 | 48.55155 | 10.86149 | 21578 ft | 463 kts | 134° |
| 2026-04-18 10:57 | 48.52943 | 10.89688 | 21643 ft | 463 kts | 134° |
| 2026-04-18 10:57 | 48.50727 | 10.93235 | 21707 ft | 464 kts | 134° |
| 2026-04-18 10:57 | 48.48508 | 10.96785 | 21766 ft | 464 kts | 134° |
| 2026-04-18 10:57 | 48.46281 | 11.00309 | 21824 ft | 465 kts | 134° |
| 2026-04-18 10:58 | 48.44032 | 11.03821 | 21888 ft | 465 kts | 134° |
| 2026-04-18 10:58 | 48.41772 | 11.07325 | 21945 ft | 466 kts | 134° |
| 2026-04-18 10:58 | 48.39508 | 11.10828 | 22004 ft | 466 kts | 134° |
| 2026-04-18 10:58 | 48.37246 | 11.14326 | 22066 ft | 466 kts | 134° |
| 2026-04-18 10:59 | 48.34983 | 11.17827 | 22120 ft | 467 kts | 134° |
| 2026-04-18 10:59 | 48.32710 | 11.21345 | 22176 ft | 467 kts | 134° |
| 2026-04-18 10:59 | 48.30465 | 11.24820 | 22235 ft | 468 kts | 134° |
| 2026-04-18 10:59 | 48.28342 | 11.28540 | 22277 ft | 469 kts | 127° |
| 2026-04-18 11:00 | 48.26622 | 11.32693 | 22326 ft | 470 kts | 117° |
| 2026-04-18 11:00 | 48.25410 | 11.37235 | 22376 ft | 470 kts | 108° |
| 2026-04-18 11:00 | 48.24477 | 11.41950 | 22420 ft | 471 kts | 105° |
| 2026-04-18 11:00 | 48.23646 | 11.46844 | 22474 ft | 471 kts | 104° |
| 2026-04-18 11:01 | 48.22883 | 11.51695 | 22522 ft | 472 kts | 103° |
| 2026-04-18 11:01 | 48.22148 | 11.56438 | 22566 ft | 472 kts | 103° |
| 2026-04-18 11:01 | 48.21395 | 11.61236 | 22611 ft | 472 kts | 103° |
| 2026-04-18 11:02 | 48.19837 | 11.70880 | 22700 ft | 473 kts | 104° |
| 2026-04-18 11:02 | 48.19289 | 11.74124 | 22727 ft | 473 kts | 106° |
| 2026-04-18 11:02 | 48.18163 | 11.78760 | 22758 ft | 473 kts | 115° |
| 2026-04-18 11:02 | 48.16508 | 11.83000 | 22793 ft | 473 kts | 127° |
| 2026-04-18 11:03 | 48.14359 | 11.86731 | 22840 ft | 473 kts | 134° |
| 2026-04-18 11:03 | 48.12021 | 11.90202 | 22874 ft | 473 kts | 137° |
| 2026-04-18 11:03 | 48.09607 | 11.93541 | 22908 ft | 473 kts | 138° |
| 2026-04-18 11:03 | 48.07174 | 11.96814 | 22948 ft | 474 kts | 138° |
| 2026-04-18 11:04 | 48.04677 | 12.00154 | 22986 ft | 474 kts | 138° |
| 2026-04-18 11:04 | 48.02224 | 12.03452 | 23020 ft | 474 kts | 138° |
| 2026-04-18 11:04 | 47.99781 | 12.06759 | 23058 ft | 474 kts | 138° |
| 2026-04-18 11:04 | 47.97342 | 12.10078 | 23093 ft | 475 kts | 138° |
| 2026-04-18 11:05 | 47.94856 | 12.13470 | 23124 ft | 475 kts | 138° |
| 2026-04-18 11:05 | 47.92468 | 12.16730 | 23155 ft | 475 kts | 138° |
| 2026-04-18 11:05 | 47.89982 | 12.19989 | 23187 ft | 475 kts | 140° |
| 2026-04-18 11:05 | 47.87451 | 12.23164 | 23219 ft | 476 kts | 140° |
| 2026-04-18 11:06 | 47.84903 | 12.26306 | 23246 ft | 476 kts | 141° |
| 2026-04-18 11:06 | 47.82347 | 12.29448 | 23275 ft | 476 kts | 141° |
| 2026-04-18 11:06 | 47.79830 | 12.32553 | 23308 ft | 476 kts | 140° |
| 2026-04-18 11:06 | 47.77277 | 12.35718 | 23345 ft | 477 kts | 140° |
| 2026-04-18 11:07 | 47.74733 | 12.38881 | 23368 ft | 477 kts | 140° |
| 2026-04-18 11:07 | 47.72192 | 12.42047 | 23397 ft | 477 kts | 140° |
| 2026-04-18 11:07 | 47.69633 | 12.45238 | 23423 ft | 477 kts | 140° |
| 2026-04-18 11:07 | 47.67085 | 12.48392 | 23454 ft | 478 kts | 140° |
| 2026-04-18 11:08 | 47.64525 | 12.51532 | 23481 ft | 478 kts | 141° |
| 2026-04-18 11:08 | 47.61823 | 12.54337 | 23504 ft | 478 kts | 149° |
| 2026-04-18 11:08 | 47.58948 | 12.56863 | 23537 ft | 478 kts | 150° |
| 2026-04-18 11:08 | 47.56048 | 12.59273 | 23543 ft | 478 kts | 151° |
| 2026-04-18 11:09 | 47.53128 | 12.61629 | 23529 ft | 478 kts | 152° |
| 2026-04-18 11:09 | 47.50202 | 12.63960 | 23514 ft | 478 kts | 152° |
| 2026-04-18 11:09 | 47.47278 | 12.66284 | 23502 ft | 478 kts | 152° |
| 2026-04-18 11:09 | 47.45184 | 12.67951 | 23497 ft | 477 kts | 152° |
| 2026-04-18 11:10 | 47.44416 | 12.68563 | 23495 ft | 477 kts | 152° |
| 2026-04-18 11:10 | 47.41482 | 12.70904 | 23478 ft | 477 kts | 152° |
| 2026-04-18 11:10 | 47.38588 | 12.73217 | 23464 ft | 477 kts | 152° |
| 2026-04-18 11:10 | 47.35674 | 12.75547 | 23457 ft | 477 kts | 152° |
| 2026-04-18 11:11 | 47.32748 | 12.77887 | 23447 ft | 477 kts | 152° |
| 2026-04-18 11:11 | 47.29834 | 12.80215 | 23438 ft | 477 kts | 152° |
| 2026-04-18 11:11 | 47.26913 | 12.82546 | 23431 ft | 477 kts | 152° |
| 2026-04-18 11:11 | 47.23995 | 12.84872 | 23428 ft | 477 kts | 152° |
| 2026-04-18 11:12 | 47.21080 | 12.87192 | 23411 ft | 477 kts | 152° |
| 2026-04-18 11:12 | 47.18186 | 12.89493 | 23410 ft | 477 kts | 152° |
| 2026-04-18 11:12 | 47.15246 | 12.91826 | 23399 ft | 477 kts | 152° |
| 2026-04-18 11:12 | 47.12328 | 12.94138 | 23394 ft | 476 kts | 152° |
| 2026-04-18 11:13 | 47.09409 | 12.96447 | 23378 ft | 476 kts | 152° |
| 2026-04-18 11:13 | 47.06491 | 12.98754 | 23370 ft | 476 kts | 152° |
| 2026-04-18 11:13 | 47.03575 | 13.01056 | 23355 ft | 476 kts | 152° |
| 2026-04-18 11:13 | 47.00658 | 13.03357 | 23354 ft | 476 kts | 152° |
| 2026-04-18 11:14 | 46.97740 | 13.05654 | 23341 ft | 476 kts | 152° |
| 2026-04-18 11:14 | 46.94828 | 13.07944 | 23335 ft | 476 kts | 152° |
| 2026-04-18 11:14 | 46.91906 | 13.10241 | 23322 ft | 476 kts | 152° |
| 2026-04-18 11:14 | 46.88988 | 13.12532 | 23311 ft | 476 kts | 152° |
| 2026-04-18 11:15 | 46.86071 | 13.14817 | 23308 ft | 476 kts | 152° |
| 2026-04-18 11:15 | 46.83160 | 13.17095 | 23294 ft | 475 kts | 152° |
| 2026-04-18 11:15 | 46.80242 | 13.19376 | 23295 ft | 475 kts | 152° |
| 2026-04-18 11:15 | 46.77330 | 13.21651 | 23291 ft | 475 kts | 152° |
| 2026-04-18 11:16 | 46.74412 | 13.23927 | 23286 ft | 475 kts | 152° |
| 2026-04-18 11:16 | 46.71496 | 13.26198 | 23279 ft | 475 kts | 152° |
| 2026-04-18 11:16 | 46.68579 | 13.28466 | 23273 ft | 475 kts | 152° |
| 2026-04-18 11:16 | 46.65660 | 13.30733 | 23272 ft | 475 kts | 152° |
| 2026-04-18 11:17 | 46.62750 | 13.32992 | 23253 ft | 475 kts | 152° |
| 2026-04-18 11:17 | 46.59833 | 13.35253 | 23253 ft | 475 kts | 152° |
| 2026-04-18 11:17 | 46.56921 | 13.37507 | 23248 ft | 475 kts | 152° |
| 2026-04-18 11:17 | 46.53989 | 13.39747 | 23234 ft | 475 kts | 153° |
| 2026-04-18 11:18 | 46.51033 | 13.41879 | 23224 ft | 474 kts | 154° |
| 2026-04-18 11:18 | 46.48063 | 13.43950 | 23216 ft | 474 kts | 155° |
| 2026-04-18 11:18 | 46.45083 | 13.46006 | 23212 ft | 474 kts | 155° |
| 2026-04-18 11:18 | 46.42101 | 13.48065 | 23205 ft | 474 kts | 155° |
| 2026-04-18 11:19 | 46.39122 | 13.50134 | 23197 ft | 474 kts | 154° |
| 2026-04-18 11:19 | 46.36155 | 13.52205 | 23184 ft | 474 kts | 154° |
| 2026-04-18 11:19 | 46.33186 | 13.54285 | 23183 ft | 474 kts | 154° |
| 2026-04-18 11:19 | 46.30218 | 13.56367 | 23174 ft | 474 kts | 154° |
| 2026-04-18 11:20 | 46.27252 | 13.58448 | 23176 ft | 474 kts | 154° |
| 2026-04-18 11:20 | 46.24287 | 13.60526 | 23174 ft | 474 kts | 154° |
| 2026-04-18 11:20 | 46.21324 | 13.62599 | 23172 ft | 474 kts | 154° |
| 2026-04-18 11:20 | 46.18354 | 13.64675 | 23165 ft | 474 kts | 154° |
| 2026-04-18 11:21 | 46.15384 | 13.66747 | 23162 ft | 474 kts | 154° |
| 2026-04-18 11:21 | 46.12418 | 13.68813 | 23154 ft | 474 kts | 154° |
| 2026-04-18 11:21 | 46.09453 | 13.70877 | 23147 ft | 474 kts | 154° |
| 2026-04-18 11:21 | 46.06481 | 13.72942 | 23140 ft | 474 kts | 154° |
| 2026-04-18 11:22 | 46.03479 | 13.75026 | 23131 ft | 473 kts | 154° |
| 2026-04-18 11:22 | 46.00508 | 13.77087 | 23126 ft | 473 kts | 154° |
| 2026-04-18 11:22 | 45.97540 | 13.79142 | 23122 ft | 473 kts | 154° |
| 2026-04-18 11:22 | 45.94575 | 13.81193 | 23116 ft | 473 kts | 154° |
| 2026-04-18 11:23 | 45.91607 | 13.83244 | 23114 ft | 473 kts | 154° |
| 2026-04-18 11:23 | 45.88634 | 13.85295 | 23113 ft | 473 kts | 154° |
| 2026-04-18 11:23 | 45.85663 | 13.87342 | 23106 ft | 473 kts | 154° |
| 2026-04-18 11:23 | 45.82699 | 13.89383 | 23099 ft | 473 kts | 154° |
| 2026-04-18 11:24 | 45.79734 | 13.91422 | 23091 ft | 473 kts | 154° |
| 2026-04-18 11:24 | 45.76755 | 13.93468 | 23089 ft | 473 kts | 155° |
| 2026-04-18 11:24 | 45.73786 | 13.95504 | 23086 ft | 473 kts | 155° |
| 2026-04-18 11:24 | 45.70811 | 13.97542 | 23082 ft | 473 kts | 155° |
| 2026-04-18 11:25 | 45.67838 | 13.99576 | 23078 ft | 473 kts | 155° |
| 2026-04-18 11:25 | 45.64869 | 14.01606 | 23077 ft | 473 kts | 155° |
| 2026-04-18 11:25 | 45.61863 | 14.03658 | 23071 ft | 473 kts | 155° |
| 2026-04-18 11:25 | 45.58925 | 14.05661 | 23065 ft | 473 kts | 155° |
| 2026-04-18 11:26 | 45.55960 | 14.07681 | 23060 ft | 473 kts | 155° |
| 2026-04-18 11:26 | 45.52955 | 14.09725 | 23054 ft | 472 kts | 155° |
| 2026-04-18 11:26 | 45.49982 | 14.11745 | 23046 ft | 472 kts | 155° |
| 2026-04-18 11:26 | 45.47054 | 14.13733 | 23041 ft | 472 kts | 155° |
| 2026-04-18 11:27 | 45.44058 | 14.15672 | 23031 ft | 472 kts | 157° |
| 2026-04-18 11:27 | 45.41025 | 14.17482 | 23020 ft | 472 kts | 158° |
| 2026-04-18 11:27 | 45.37978 | 14.19235 | 23018 ft | 472 kts | 158° |
| 2026-04-18 11:27 | 45.34893 | 14.20997 | 23008 ft | 472 kts | 158° |
| 2026-04-18 11:28 | 45.31888 | 14.22725 | 23003 ft | 472 kts | 158° |
| 2026-04-18 11:28 | 45.28806 | 14.24513 | 22997 ft | 472 kts | 158° |
| 2026-04-18 11:28 | 45.25775 | 14.26286 | 22994 ft | 472 kts | 158° |
| 2026-04-18 11:28 | 45.22733 | 14.28073 | 22988 ft | 472 kts | 158° |
| 2026-04-18 11:29 | 45.19701 | 14.29859 | 22985 ft | 472 kts | 158° |
| 2026-04-18 11:29 | 45.16711 | 14.31619 | 22983 ft | 471 kts | 158° |
| 2026-04-18 11:29 | 45.13667 | 14.33409 | 22977 ft | 471 kts | 158° |
| 2026-04-18 11:29 | 45.10638 | 14.35188 | 22972 ft | 471 kts | 158° |
| 2026-04-18 11:30 | 45.07607 | 14.36965 | 22969 ft | 471 kts | 158° |
| 2026-04-18 11:30 | 45.04539 | 14.38762 | 22963 ft | 471 kts | 158° |
| 2026-04-18 11:30 | 45.01507 | 14.40534 | 22959 ft | 471 kts | 158° |
| 2026-04-18 11:30 | 44.98478 | 14.42303 | 22954 ft | 471 kts | 158° |
| 2026-04-18 11:31 | 44.95455 | 14.44066 | 22950 ft | 471 kts | 158° |
| 2026-04-18 11:31 | 44.92453 | 14.45814 | 22946 ft | 471 kts | 158° |
| 2026-04-18 11:31 | 44.89384 | 14.47601 | 22942 ft | 471 kts | 158° |
| 2026-04-18 11:31 | 44.86351 | 14.49363 | 22937 ft | 471 kts | 158° |
| 2026-04-18 11:32 | 44.83322 | 14.51121 | 22932 ft | 471 kts | 158° |
| 2026-04-18 11:32 | 44.80284 | 14.52883 | 22928 ft | 471 kts | 158° |
| 2026-04-18 11:32 | 44.77297 | 14.54614 | 22924 ft | 471 kts | 158° |
| 2026-04-18 11:32 | 44.74260 | 14.56371 | 22918 ft | 471 kts | 158° |
| 2026-04-18 11:33 | 44.72218 | 14.57551 | 22915 ft | 471 kts | 158° |
| 2026-04-18 11:33 | 44.69184 | 14.59303 | 22910 ft | 471 kts | 158° |
| 2026-04-18 11:33 | 44.66153 | 14.61051 | 22904 ft | 471 kts | 158° |
| 2026-04-18 11:33 | 44.62138 | 14.63365 | 22898 ft | 470 kts | 158° |
| 2026-04-18 11:34 | 44.60094 | 14.64541 | 22895 ft | 470 kts | 158° |
| 2026-04-18 11:34 | 44.57060 | 14.66284 | 22890 ft | 470 kts | 158° |
| 2026-04-18 11:34 | 44.54058 | 14.68007 | 22886 ft | 470 kts | 158° |
| 2026-04-18 11:34 | 44.51024 | 14.69748 | 22882 ft | 470 kts | 158° |
| 2026-04-18 11:35 | 44.47987 | 14.71488 | 22878 ft | 470 kts | 158° |
| 2026-04-18 11:35 | 44.44960 | 14.73221 | 22875 ft | 470 kts | 158° |
| 2026-04-18 11:35 | 44.41928 | 14.74955 | 22870 ft | 470 kts | 158° |
| 2026-04-18 11:35 | 44.38897 | 14.76686 | 22866 ft | 470 kts | 158° |
| 2026-04-18 11:36 | 44.35890 | 14.78477 | 22862 ft | 470 kts | 155° |
| 2026-04-18 11:36 | 44.32945 | 14.80486 | 22864 ft | 470 kts | 153° |
| 2026-04-18 11:36 | 44.30041 | 14.82599 | 22860 ft | 470 kts | 152° |
| 2026-04-18 11:36 | 44.27156 | 14.84730 | 22854 ft | 470 kts | 152° |
| 2026-04-18 11:37 | 44.24254 | 14.86856 | 22850 ft | 470 kts | 153° |
| 2026-04-18 11:37 | 44.21351 | 14.88951 | 22847 ft | 470 kts | 153° |
| 2026-04-18 11:37 | 44.18438 | 14.91022 | 22844 ft | 470 kts | 153° |
| 2026-04-18 11:37 | 44.15470 | 14.93112 | 22842 ft | 470 kts | 153° |
| 2026-04-18 11:38 | 44.12557 | 14.95149 | 22841 ft | 470 kts | 154° |
| 2026-04-18 11:38 | 44.09621 | 14.97197 | 22837 ft | 470 kts | 154° |
| 2026-04-18 11:38 | 44.06700 | 14.99231 | 22834 ft | 470 kts | 154° |
| 2026-04-18 11:38 | 44.03771 | 15.01271 | 22841 ft | 470 kts | 154° |
| 2026-04-18 11:39 | 44.00851 | 15.03303 | 22852 ft | 470 kts | 154° |
| 2026-04-18 11:39 | 43.97927 | 15.05336 | 22857 ft | 470 kts | 154° |
| 2026-04-18 11:39 | 43.95007 | 15.07363 | 22851 ft | 470 kts | 154° |
| 2026-04-18 11:39 | 43.92083 | 15.09392 | 22846 ft | 470 kts | 154° |
| 2026-04-18 11:40 | 43.89158 | 15.11421 | 22841 ft | 470 kts | 154° |
| 2026-04-18 11:40 | 43.86238 | 15.13444 | 22837 ft | 470 kts | 154° |
| 2026-04-18 11:40 | 43.83318 | 15.15464 | 22832 ft | 470 kts | 154° |
| 2026-04-18 11:40 | 43.80394 | 15.17485 | 22828 ft | 470 kts | 154° |
| 2026-04-18 11:41 | 43.77469 | 15.19504 | 22825 ft | 469 kts | 154° |
| 2026-04-18 11:41 | 43.74548 | 15.21518 | 22820 ft | 469 kts | 154° |
| 2026-04-18 11:41 | 43.71621 | 15.23534 | 22815 ft | 469 kts | 154° |
| 2026-04-18 11:41 | 43.68700 | 15.25543 | 22811 ft | 469 kts | 154° |
| 2026-04-18 11:42 | 43.65773 | 15.27555 | 22806 ft | 469 kts | 154° |
| 2026-04-18 11:42 | 43.62850 | 15.29561 | 22802 ft | 469 kts | 154° |
| 2026-04-18 11:42 | 43.60032 | 15.31493 | 22798 ft | 469 kts | 154° |
| 2026-04-18 11:42 | 43.57106 | 15.33497 | 22795 ft | 469 kts | 154° |
| 2026-04-18 11:43 | 43.54181 | 15.35498 | 22792 ft | 469 kts | 154° |
| 2026-04-18 11:43 | 43.51261 | 15.37494 | 22790 ft | 469 kts | 154° |
| 2026-04-18 11:43 | 43.48334 | 15.39492 | 22785 ft | 469 kts | 154° |
| 2026-04-18 11:43 | 43.45417 | 15.41482 | 22781 ft | 469 kts | 154° |
| 2026-04-18 11:44 | 43.42492 | 15.43475 | 22780 ft | 469 kts | 154° |
| 2026-04-18 11:44 | 43.39560 | 15.45470 | 22777 ft | 469 kts | 154° |
| 2026-04-18 11:44 | 43.36637 | 15.47457 | 22773 ft | 469 kts | 154° |
| 2026-04-18 11:44 | 43.33709 | 15.49445 | 22770 ft | 469 kts | 154° |
| 2026-04-18 11:45 | 43.30787 | 15.51427 | 22768 ft | 469 kts | 154° |
| 2026-04-18 11:45 | 43.27865 | 15.53407 | 22765 ft | 469 kts | 154° |
| 2026-04-18 11:45 | 43.24939 | 15.55388 | 22762 ft | 469 kts | 154° |
| 2026-04-18 11:45 | 43.22010 | 15.57368 | 22759 ft | 469 kts | 154° |
| 2026-04-18 11:46 | 43.19093 | 15.59338 | 22756 ft | 469 kts | 154° |
| 2026-04-18 11:46 | 43.16122 | 15.61342 | 22753 ft | 469 kts | 154° |
| 2026-04-18 11:46 | 43.13238 | 15.63286 | 22751 ft | 468 kts | 154° |
| 2026-04-18 11:46 | 43.10279 | 15.65278 | 22749 ft | 468 kts | 154° |
| 2026-04-18 11:47 | 43.07356 | 15.67244 | 22745 ft | 468 kts | 154° |
| 2026-04-18 11:47 | 43.04426 | 15.69212 | 22742 ft | 468 kts | 154° |
| 2026-04-18 11:47 | 43.01500 | 15.71176 | 22740 ft | 468 kts | 154° |
| 2026-04-18 11:47 | 42.98617 | 15.73108 | 22737 ft | 468 kts | 154° |
| 2026-04-18 11:48 | 42.95694 | 15.75066 | 22735 ft | 468 kts | 154° |
| 2026-04-18 11:48 | 42.92765 | 15.77024 | 22732 ft | 468 kts | 154° |
| 2026-04-18 11:48 | 42.89839 | 15.78980 | 22729 ft | 468 kts | 154° |
| 2026-04-18 11:48 | 42.87864 | 15.80298 | 22728 ft | 468 kts | 154° |
| 2026-04-18 11:49 | 42.85780 | 15.81689 | 22726 ft | 468 kts | 154° |
| 2026-04-18 11:49 | 42.82849 | 15.83642 | 22725 ft | 468 kts | 154° |
| 2026-04-18 11:49 | 42.79927 | 15.85588 | 22722 ft | 468 kts | 154° |
| 2026-04-18 11:50 | 42.77004 | 15.87532 | 22720 ft | 468 kts | 154° |
| 2026-04-18 11:50 | 42.74075 | 15.89478 | 22717 ft | 468 kts | 154° |
| 2026-04-18 11:50 | 42.71144 | 15.91423 | 22715 ft | 468 kts | 154° |
| 2026-04-18 11:50 | 42.68222 | 15.93361 | 22713 ft | 468 kts | 154° |
| 2026-04-18 11:51 | 42.65293 | 15.95300 | 22709 ft | 468 kts | 154° |
| 2026-04-18 11:51 | 42.62370 | 15.97234 | 22707 ft | 468 kts | 154° |
| 2026-04-18 11:51 | 42.59439 | 15.99172 | 22705 ft | 468 kts | 154° |
| 2026-04-18 11:51 | 42.56517 | 16.01101 | 22703 ft | 468 kts | 154° |
| 2026-04-18 11:52 | 42.53584 | 16.03020 | 22698 ft | 468 kts | 155° |
| 2026-04-18 11:52 | 42.50560 | 16.04633 | 22691 ft | 467 kts | 162° |
| 2026-04-18 11:52 | 42.47430 | 16.05802 | 22692 ft | 467 kts | 166° |
| 2026-04-18 11:52 | 42.44262 | 16.06804 | 22688 ft | 467 kts | 168° |
| 2026-04-18 11:53 | 42.41086 | 16.07718 | 22686 ft | 467 kts | 168° |
| 2026-04-18 11:53 | 42.37898 | 16.08595 | 22684 ft | 467 kts | 169° |
| 2026-04-18 11:53 | 42.34720 | 16.09458 | 22683 ft | 467 kts | 169° |
| 2026-04-18 11:53 | 42.31533 | 16.10331 | 22680 ft | 467 kts | 168° |
| 2026-04-18 11:54 | 42.28406 | 16.11512 | 22670 ft | 467 kts | 160° |
| 2026-04-18 11:54 | 42.25441 | 16.13325 | 22665 ft | 467 kts | 150° |
| 2026-04-18 11:54 | 42.22702 | 16.15678 | 22666 ft | 468 kts | 146° |
| 2026-04-18 11:54 | 42.20053 | 16.18238 | 22662 ft | 468 kts | 143° |
| 2026-04-18 11:55 | 42.17459 | 16.20890 | 22661 ft | 468 kts | 142° |
| 2026-04-18 11:55 | 42.14889 | 16.23574 | 22658 ft | 468 kts | 142° |
| 2026-04-18 11:55 | 42.12323 | 16.26260 | 22656 ft | 468 kts | 142° |
| 2026-04-18 11:55 | 42.09746 | 16.28939 | 22657 ft | 468 kts | 143° |
| 2026-04-18 11:56 | 42.07165 | 16.31602 | 22654 ft | 467 kts | 143° |
| 2026-04-18 11:56 | 42.04579 | 16.34251 | 22652 ft | 467 kts | 143° |
| 2026-04-18 11:56 | 42.01986 | 16.36894 | 22651 ft | 467 kts | 143° |
| 2026-04-18 11:56 | 41.99394 | 16.39528 | 22650 ft | 467 kts | 143° |
| 2026-04-18 11:57 | 41.96800 | 16.42160 | 22647 ft | 467 kts | 143° |
| 2026-04-18 11:57 | 41.94205 | 16.44790 | 22646 ft | 467 kts | 143° |
| 2026-04-18 11:57 | 41.91609 | 16.47418 | 22644 ft | 467 kts | 143° |
| 2026-04-18 11:57 | 41.89009 | 16.50049 | 22643 ft | 467 kts | 143° |
| 2026-04-18 11:58 | 41.86415 | 16.52670 | 22642 ft | 467 kts | 143° |
| 2026-04-18 11:58 | 41.83815 | 16.55297 | 22640 ft | 467 kts | 143° |
| 2026-04-18 11:58 | 41.81222 | 16.57914 | 22638 ft | 467 kts | 143° |
| 2026-04-18 11:58 | 41.78622 | 16.60534 | 22636 ft | 467 kts | 143° |
| 2026-04-18 11:59 | 41.76027 | 16.63147 | 22634 ft | 467 kts | 143° |
| 2026-04-18 11:59 | 41.73425 | 16.65765 | 22634 ft | 467 kts | 143° |
| 2026-04-18 11:59 | 41.70827 | 16.68375 | 22632 ft | 467 kts | 143° |
| 2026-04-18 11:59 | 41.68229 | 16.70983 | 22631 ft | 467 kts | 143° |
| 2026-04-18 12:00 | 41.65633 | 16.73587 | 22629 ft | 467 kts | 143° |
| 2026-04-18 12:00 | 41.63104 | 16.76120 | 22627 ft | 467 kts | 143° |
| 2026-04-18 12:00 | 41.60428 | 16.78798 | 22626 ft | 467 kts | 143° |
| 2026-04-18 12:00 | 41.57834 | 16.81391 | 22625 ft | 467 kts | 143° |
| 2026-04-18 12:01 | 41.52626 | 16.86589 | 22622 ft | 467 kts | 143° |
| 2026-04-18 12:01 | 41.50026 | 16.89181 | 22622 ft | 467 kts | 143° |
| 2026-04-18 12:01 | 41.47423 | 16.91772 | 22620 ft | 467 kts | 143° |
| 2026-04-18 12:02 | 41.44817 | 16.94363 | 22623 ft | 467 kts | 143° |
| 2026-04-18 12:02 | 41.42217 | 16.96947 | 22619 ft | 467 kts | 143° |
| 2026-04-18 12:02 | 41.39613 | 16.99531 | 22615 ft | 467 kts | 143° |
| 2026-04-18 12:02 | 41.37009 | 17.02113 | 22613 ft | 467 kts | 143° |
| 2026-04-18 12:03 | 41.34404 | 17.04693 | 22612 ft | 467 kts | 143° |
| 2026-04-18 12:03 | 41.31800 | 17.07270 | 22611 ft | 467 kts | 143° |
| 2026-04-18 12:03 | 41.29194 | 17.09846 | 22609 ft | 467 kts | 143° |
| 2026-04-18 12:03 | 41.26583 | 17.12423 | 22610 ft | 467 kts | 143° |
| 2026-04-18 12:04 | 41.23980 | 17.14992 | 22609 ft | 467 kts | 143° |
| 2026-04-18 12:04 | 41.21374 | 17.17559 | 22606 ft | 467 kts | 143° |
| 2026-04-18 12:04 | 41.18766 | 17.20127 | 22605 ft | 466 kts | 143° |
| 2026-04-18 12:04 | 41.16164 | 17.22686 | 22604 ft | 466 kts | 143° |
| 2026-04-18 12:05 | 41.13550 | 17.25254 | 22602 ft | 466 kts | 144° |
| 2026-04-18 12:05 | 41.10940 | 17.27816 | 22601 ft | 466 kts | 144° |
| 2026-04-18 12:05 | 41.08336 | 17.30369 | 22600 ft | 466 kts | 144° |
| 2026-04-18 12:05 | 41.05726 | 17.32925 | 22605 ft | 466 kts | 144° |
| 2026-04-18 12:06 | 41.03113 | 17.35482 | 22603 ft | 466 kts | 144° |
| 2026-04-18 12:06 | 41.00507 | 17.38029 | 22601 ft | 466 kts | 144° |
| 2026-04-18 12:06 | 40.97897 | 17.40578 | 22599 ft | 466 kts | 144° |
| 2026-04-18 12:06 | 40.95283 | 17.43128 | 22598 ft | 466 kts | 144° |
| 2026-04-18 12:07 | 40.92673 | 17.45672 | 22596 ft | 466 kts | 144° |
| 2026-04-18 12:07 | 40.90055 | 17.48220 | 22599 ft | 466 kts | 144° |
| 2026-04-18 12:07 | 40.87449 | 17.50755 | 22599 ft | 466 kts | 144° |
| 2026-04-18 12:07 | 40.84832 | 17.53298 | 22597 ft | 466 kts | 144° |
| 2026-04-18 12:08 | 40.82234 | 17.55819 | 22593 ft | 466 kts | 144° |
| 2026-04-18 12:08 | 40.79625 | 17.58348 | 22592 ft | 466 kts | 144° |
| 2026-04-18 12:08 | 40.77010 | 17.60882 | 22596 ft | 466 kts | 144° |
| 2026-04-18 12:08 | 40.74393 | 17.63414 | 22596 ft | 466 kts | 144° |
| 2026-04-18 12:09 | 40.72664 | 17.65087 | 22594 ft | 466 kts | 144° |
| 2026-04-18 12:09 | 40.70049 | 17.67613 | 22593 ft | 466 kts | 144° |
| 2026-04-18 12:09 | 40.67430 | 17.70141 | 22593 ft | 466 kts | 144° |
| 2026-04-18 12:09 | 40.63964 | 17.73483 | 22593 ft | 466 kts | 144° |
| 2026-04-18 12:10 | 40.62204 | 17.75177 | 22592 ft | 466 kts | 144° |
| 2026-04-18 12:10 | 40.58733 | 17.78518 | 22591 ft | 466 kts | 144° |
| 2026-04-18 12:10 | 40.56970 | 17.80212 | 22591 ft | 466 kts | 144° |
| 2026-04-18 12:10 | 40.54348 | 17.82729 | 22590 ft | 466 kts | 144° |
| 2026-04-18 12:11 | 40.51734 | 17.85237 | 22590 ft | 466 kts | 144° |
| 2026-04-18 12:11 | 40.49112 | 17.87751 | 22590 ft | 466 kts | 144° |
| 2026-04-18 12:11 | 40.46496 | 17.90257 | 22590 ft | 466 kts | 144° |
| 2026-04-18 12:11 | 40.43878 | 17.92761 | 22591 ft | 466 kts | 144° |
| 2026-04-18 12:12 | 40.41258 | 17.95265 | 22590 ft | 466 kts | 144° |
| 2026-04-18 12:12 | 40.38630 | 17.97773 | 22588 ft | 466 kts | 144° |
| 2026-04-18 12:12 | 40.36011 | 18.00271 | 22587 ft | 466 kts | 144° |
| 2026-04-18 12:12 | 40.33394 | 18.02765 | 22586 ft | 466 kts | 144° |
| 2026-04-18 12:13 | 40.30771 | 18.05262 | 22584 ft | 466 kts | 144° |
| 2026-04-18 12:13 | 40.28152 | 18.07752 | 22585 ft | 466 kts | 144° |
| 2026-04-18 12:13 | 40.25530 | 18.10244 | 22585 ft | 466 kts | 144° |
| 2026-04-18 12:13 | 40.22908 | 18.12732 | 22583 ft | 466 kts | 144° |
| 2026-04-18 12:14 | 40.20285 | 18.15219 | 22582 ft | 466 kts | 144° |
| 2026-04-18 12:14 | 40.17659 | 18.17708 | 22581 ft | 466 kts | 144° |
| 2026-04-18 12:14 | 40.16810 | 18.18511 | 22581 ft | 466 kts | 144° |
| 2026-04-18 12:15 | 40.15799 | 18.19468 | 22580 ft | 466 kts | 144° |
| 2026-04-18 12:16 | 40.13175 | 18.21949 | 22579 ft | 466 kts | 144° |
| 2026-04-18 12:16 | 40.10572 | 18.24408 | 22578 ft | 465 kts | 144° |
| 2026-04-18 12:16 | 40.07924 | 18.26907 | 22578 ft | 465 kts | 144° |
| 2026-04-18 12:16 | 40.05295 | 18.29385 | 22577 ft | 465 kts | 144° |
| 2026-04-18 12:17 | 40.02672 | 18.31856 | 22576 ft | 465 kts | 144° |
| 2026-04-18 12:17 | 40.00043 | 18.34331 | 22574 ft | 465 kts | 144° |
| 2026-04-18 12:17 | 39.97419 | 18.36799 | 22573 ft | 465 kts | 144° |
| 2026-04-18 12:17 | 39.94790 | 18.39268 | 22573 ft | 465 kts | 144° |
| 2026-04-18 12:18 | 39.92163 | 18.41733 | 22573 ft | 465 kts | 144° |
| 2026-04-18 12:18 | 39.89537 | 18.44195 | 22570 ft | 465 kts | 144° |
| 2026-04-18 12:18 | 39.86909 | 18.46656 | 22568 ft | 465 kts | 144° |
| 2026-04-18 12:18 | 39.84282 | 18.49114 | 22566 ft | 465 kts | 144° |
| 2026-04-18 12:19 | 39.81655 | 18.51570 | 22565 ft | 465 kts | 144° |
| 2026-04-18 12:19 | 39.79024 | 18.54027 | 22563 ft | 465 kts | 144° |
| 2026-04-18 12:19 | 39.76392 | 18.56483 | 22562 ft | 465 kts | 144° |
| 2026-04-18 12:19 | 39.73794 | 18.58904 | 22560 ft | 465 kts | 144° |
| 2026-04-18 12:20 | 39.71165 | 18.61352 | 22559 ft | 465 kts | 144° |
| 2026-04-18 12:20 | 39.68535 | 18.63799 | 22557 ft | 465 kts | 144° |
| 2026-04-18 12:20 | 39.65869 | 18.66276 | 22555 ft | 465 kts | 144° |
| 2026-04-18 12:20 | 39.63242 | 18.68716 | 22554 ft | 465 kts | 144° |
| 2026-04-18 12:21 | 39.60614 | 18.71153 | 22553 ft | 465 kts | 144° |
| 2026-04-18 12:21 | 39.58014 | 18.73563 | 22552 ft | 465 kts | 144° |
| 2026-04-18 12:21 | 39.55380 | 18.76002 | 22550 ft | 465 kts | 144° |
| 2026-04-18 12:21 | 39.52745 | 18.78439 | 22549 ft | 465 kts | 144° |
| 2026-04-18 12:22 | 39.50116 | 18.80869 | 22547 ft | 465 kts | 144° |
| 2026-04-18 12:22 | 39.47481 | 18.83302 | 22547 ft | 465 kts | 144° |
| 2026-04-18 12:22 | 39.44851 | 18.85727 | 22548 ft | 465 kts | 144° |
| 2026-04-18 12:22 | 39.42216 | 18.88155 | 22545 ft | 465 kts | 145° |
| 2026-04-18 12:23 | 39.39583 | 18.90579 | 22545 ft | 465 kts | 145° |
| 2026-04-18 12:23 | 39.36945 | 18.93006 | 22543 ft | 465 kts | 145° |
| 2026-04-18 12:23 | 39.34314 | 18.95424 | 22542 ft | 465 kts | 145° |
| 2026-04-18 12:23 | 39.31678 | 18.97843 | 22541 ft | 465 kts | 145° |
| 2026-04-18 12:24 | 39.29111 | 19.00377 | 22534 ft | 465 kts | 141° |
| 2026-04-18 12:24 | 39.26629 | 19.03054 | 22531 ft | 465 kts | 140° |
| 2026-04-18 12:24 | 39.24180 | 19.05770 | 22530 ft | 465 kts | 139° |
| 2026-04-18 12:24 | 39.21743 | 19.08516 | 22529 ft | 465 kts | 139° |
| 2026-04-18 12:25 | 39.19317 | 19.11266 | 22528 ft | 465 kts | 139° |
| 2026-04-18 12:25 | 39.16889 | 19.14018 | 22526 ft | 465 kts | 139° |
| 2026-04-18 12:25 | 39.14459 | 19.16768 | 22524 ft | 465 kts | 139° |
| 2026-04-18 12:25 | 39.12029 | 19.19510 | 22522 ft | 465 kts | 139° |
| 2026-04-18 12:26 | 39.09596 | 19.22249 | 22521 ft | 465 kts | 139° |
| 2026-04-18 12:26 | 39.07162 | 19.24983 | 22519 ft | 465 kts | 139° |
| 2026-04-18 12:26 | 39.04729 | 19.27713 | 22518 ft | 464 kts | 139° |
| 2026-04-18 12:26 | 39.02291 | 19.30444 | 22516 ft | 464 kts | 139° |
| 2026-04-18 12:27 | 38.99851 | 19.33174 | 22515 ft | 464 kts | 139° |
| 2026-04-18 12:27 | 38.97418 | 19.35895 | 22517 ft | 464 kts | 139° |
| 2026-04-18 12:27 | 38.94979 | 19.38620 | 22515 ft | 464 kts | 139° |
| 2026-04-18 12:27 | 38.92541 | 19.41341 | 22512 ft | 464 kts | 139° |
| 2026-04-18 12:28 | 38.90099 | 19.44064 | 22511 ft | 464 kts | 139° |
| 2026-04-18 12:28 | 38.87663 | 19.46778 | 22509 ft | 464 kts | 139° |
| 2026-04-18 12:28 | 38.85221 | 19.49497 | 22509 ft | 464 kts | 139° |
| 2026-04-18 12:28 | 38.82779 | 19.52213 | 22509 ft | 464 kts | 139° |
| 2026-04-18 12:29 | 38.80336 | 19.54927 | 22507 ft | 464 kts | 139° |
| 2026-04-18 12:29 | 38.77894 | 19.57638 | 22506 ft | 464 kts | 139° |
| 2026-04-18 12:29 | 38.75453 | 19.60345 | 22506 ft | 464 kts | 139° |
| 2026-04-18 12:29 | 38.73014 | 19.63046 | 22503 ft | 464 kts | 139° |
| 2026-04-18 12:30 | 38.70568 | 19.65754 | 22502 ft | 464 kts | 139° |
| 2026-04-18 12:30 | 38.68126 | 19.68455 | 22502 ft | 464 kts | 139° |
| 2026-04-18 12:30 | 38.65683 | 19.71153 | 22501 ft | 464 kts | 139° |
| 2026-04-18 12:30 | 38.63241 | 19.73849 | 22500 ft | 464 kts | 139° |
| 2026-04-18 12:31 | 38.60795 | 19.76546 | 22500 ft | 464 kts | 139° |
| 2026-04-18 12:31 | 38.58350 | 19.79239 | 22498 ft | 464 kts | 139° |
| 2026-04-18 12:31 | 38.55904 | 19.81932 | 22496 ft | 464 kts | 140° |
| 2026-04-18 12:31 | 38.53462 | 19.84617 | 22495 ft | 464 kts | 140° |
| 2026-04-18 12:32 | 38.51042 | 19.87276 | 22496 ft | 464 kts | 140° |
| 2026-04-18 12:32 | 38.48594 | 19.89963 | 22501 ft | 464 kts | 140° |
| 2026-04-18 12:32 | 38.46144 | 19.92649 | 22575 ft | 463 kts | 140° |
| 2026-04-18 12:32 | 38.43717 | 19.95309 | 22916 ft | 456 kts | 140° |
| 2026-04-18 12:33 | 38.41330 | 19.97921 | 23280 ft | 449 kts | 140° |
| 2026-04-18 12:33 | 38.38976 | 20.00495 | 23622 ft | 443 kts | 140° |
| 2026-04-18 12:33 | 38.36632 | 20.03057 | 23709 ft | 444 kts | 140° |
| 2026-04-18 12:33 | 38.34284 | 20.05620 | 23743 ft | 445 kts | 140° |
| 2026-04-18 12:34 | 38.31937 | 20.08179 | 23930 ft | 443 kts | 140° |
| 2026-04-18 12:34 | 38.29605 | 20.10721 | 24182 ft | 439 kts | 140° |
| 2026-04-18 12:34 | 38.27299 | 20.13231 | 24436 ft | 435 kts | 140° |
| 2026-04-18 12:34 | 38.25004 | 20.15728 | 24691 ft | 432 kts | 140° |
| 2026-04-18 12:35 | 38.22733 | 20.18197 | 24945 ft | 428 kts | 140° |
| 2026-04-18 12:35 | 38.20479 | 20.20645 | 25200 ft | 424 kts | 140° |
| 2026-04-18 12:35 | 38.18244 | 20.23070 | 25455 ft | 421 kts | 140° |
| 2026-04-18 12:35 | 38.16008 | 20.25494 | 25708 ft | 423 kts | 140° |
| 2026-04-18 12:36 | 38.13758 | 20.27931 | 25957 ft | 425 kts | 140° |
| 2026-04-18 12:36 | 38.11505 | 20.30370 | 26206 ft | 427 kts | 140° |
| 2026-04-18 12:36 | 38.09236 | 20.32823 | 26455 ft | 429 kts | 140° |
| 2026-04-18 12:36 | 38.06957 | 20.35285 | 26705 ft | 431 kts | 140° |
| 2026-04-18 12:37 | 38.04671 | 20.37753 | 26954 ft | 433 kts | 140° |
| 2026-04-18 12:37 | 38.02376 | 20.40229 | 27203 ft | 434 kts | 140° |
| 2026-04-18 12:37 | 38.00064 | 20.42720 | 27453 ft | 436 kts | 140° |
| 2026-04-18 12:37 | 37.97750 | 20.45212 | 27702 ft | 438 kts | 140° |
| 2026-04-18 12:38 | 37.95419 | 20.47720 | 27951 ft | 440 kts | 140° |
| 2026-04-18 12:38 | 37.93084 | 20.50231 | 28200 ft | 442 kts | 140° |
| 2026-04-18 12:38 | 37.90737 | 20.52751 | 28450 ft | 443 kts | 140° |
| 2026-04-18 12:38 | 37.88383 | 20.55277 | 28700 ft | 444 kts | 140° |
| 2026-04-18 12:39 | 37.86022 | 20.57808 | 28969 ft | 445 kts | 140° |
| 2026-04-18 12:39 | 37.83665 | 20.60333 | 29269 ft | 444 kts | 140° |
| 2026-04-18 12:39 | 37.81309 | 20.62856 | 29571 ft | 443 kts | 140° |
| 2026-04-18 12:39 | 37.78957 | 20.65370 | 29872 ft | 442 kts | 140° |
| 2026-04-18 12:40 | 37.76611 | 20.67877 | 30174 ft | 441 kts | 140° |
| 2026-04-18 12:40 | 37.74272 | 20.70374 | 30476 ft | 440 kts | 140° |
| 2026-04-18 12:40 | 37.71935 | 20.72866 | 30778 ft | 439 kts | 140° |
| 2026-04-18 12:40 | 37.69607 | 20.75347 | 31079 ft | 437 kts | 140° |
| 2026-04-18 12:41 | 37.67319 | 20.77784 | 31376 ft | 435 kts | 140° |
| 2026-04-18 12:41 | 37.64981 | 20.80272 | 31681 ft | 433 kts | 140° |
| 2026-04-18 12:41 | 37.62685 | 20.82713 | 31982 ft | 431 kts | 140° |
| 2026-04-18 12:41 | 37.60431 | 20.85107 | 32278 ft | 428 kts | 140° |
| 2026-04-18 12:42 | 37.58134 | 20.87545 | 32582 ft | 425 kts | 140° |
| 2026-04-18 12:42 | 37.55874 | 20.89941 | 32883 ft | 422 kts | 140° |
| 2026-04-18 12:42 | 37.53637 | 20.92312 | 33183 ft | 419 kts | 140° |
| 2026-04-18 12:42 | 37.51416 | 20.94663 | 33484 ft | 415 kts | 140° |
| 2026-04-18 12:43 | 37.49213 | 20.96993 | 33785 ft | 411 kts | 140° |
| 2026-04-18 12:43 | 37.47061 | 20.99268 | 34081 ft | 407 kts | 140° |
| 2026-04-18 12:43 | 37.44905 | 21.01546 | 34377 ft | 403 kts | 140° |
| 2026-04-18 12:43 | 37.42740 | 21.03830 | 34596 ft | 401 kts | 140° |
| 2026-04-18 12:44 | 37.40635 | 21.06050 | 34730 ft | 401 kts | 140° |
| 2026-04-18 12:44 | 37.36338 | 21.10576 | 34835 ft | 405 kts | 140° |
| 2026-04-18 12:45 | 37.32001 | 21.15136 | 34922 ft | 409 kts | 140° |
| 2026-04-18 12:45 | 37.27617 | 21.19740 | 34996 ft | 413 kts | 140° |
| 2026-04-18 12:46 | 37.23173 | 21.24399 | 34994 ft | 419 kts | 140° |
| 2026-04-18 12:46 | 37.18662 | 21.29119 | 35029 ft | 424 kts | 140° |
| 2026-04-18 12:47 | 37.14111 | 21.33875 | 35108 ft | 428 kts | 140° |
| 2026-04-18 12:47 | 37.09525 | 21.38660 | 35185 ft | 431 kts | 140° |
| 2026-04-18 12:48 | 37.04889 | 21.43490 | 35261 ft | 435 kts | 140° |
| 2026-04-18 12:48 | 37.00224 | 21.48340 | 35335 ft | 438 kts | 141° |
| 2026-04-18 12:49 | 36.95521 | 21.53223 | 35406 ft | 441 kts | 141° |
| 2026-04-18 12:49 | 36.90787 | 21.58129 | 35473 ft | 444 kts | 141° |
| 2026-04-18 12:50 | 36.86015 | 21.63067 | 35538 ft | 446 kts | 141° |
| 2026-04-18 12:50 | 36.81218 | 21.68021 | 35599 ft | 449 kts | 141° |
| 2026-04-18 12:51 | 36.76386 | 21.73004 | 35660 ft | 452 kts | 141° |
| 2026-04-18 12:51 | 36.71528 | 21.78006 | 35723 ft | 454 kts | 141° |
| 2026-04-18 12:52 | 36.66646 | 21.83023 | 35779 ft | 456 kts | 141° |
| 2026-04-18 12:52 | 36.61734 | 21.88063 | 35830 ft | 459 kts | 141° |
| 2026-04-18 12:53 | 36.56794 | 21.93123 | 35881 ft | 461 kts | 141° |
| 2026-04-18 12:53 | 36.51829 | 21.98199 | 35930 ft | 463 kts | 141° |
| 2026-04-18 12:54 | 36.47652 | 22.02463 | 35986 ft | 464 kts | 141° |
| 2026-04-18 12:54 | 36.42650 | 22.07562 | 36031 ft | 466 kts | 141° |
| 2026-04-18 12:55 | 36.37626 | 22.12674 | 36075 ft | 468 kts | 141° |
| 2026-04-18 12:55 | 36.32573 | 22.17806 | 36120 ft | 470 kts | 141° |
| 2026-04-18 12:56 | 36.27536 | 22.22913 | 36161 ft | 472 kts | 141° |
| 2026-04-18 12:56 | 36.22444 | 22.28067 | 36201 ft | 473 kts | 141° |
| 2026-04-18 12:57 | 36.17333 | 22.33232 | 36242 ft | 475 kts | 141° |
| 2026-04-18 12:57 | 36.12201 | 22.38408 | 36279 ft | 477 kts | 141° |
| 2026-04-18 12:58 | 36.07053 | 22.43593 | 36315 ft | 478 kts | 141° |
| 2026-04-18 12:58 | 36.01877 | 22.48795 | 36349 ft | 480 kts | 141° |
| 2026-04-18 12:59 | 35.96691 | 22.53999 | 36382 ft | 481 kts | 141° |
| 2026-04-18 12:59 | 35.91489 | 22.59210 | 36414 ft | 482 kts | 141° |
| 2026-04-18 13:00 | 35.86273 | 22.64426 | 36446 ft | 484 kts | 141° |
| 2026-04-18 13:00 | 35.81044 | 22.69645 | 36475 ft | 485 kts | 141° |
| 2026-04-18 13:01 | 35.75792 | 22.74878 | 36504 ft | 486 kts | 141° |
| 2026-04-18 13:01 | 35.70525 | 22.80117 | 36532 ft | 487 kts | 141° |
| 2026-04-18 13:02 | 35.65245 | 22.85360 | 36557 ft | 488 kts | 141° |
| 2026-04-18 13:02 | 35.59947 | 22.90612 | 36581 ft | 489 kts | 141° |
| 2026-04-18 13:03 | 35.54643 | 22.95860 | 36605 ft | 490 kts | 141° |
| 2026-04-18 13:03 | 35.46668 | 23.03734 | 36635 ft | 492 kts | 141° |
| 2026-04-18 13:04 | 35.41327 | 23.08996 | 36655 ft | 492 kts | 141° |
| 2026-04-18 13:04 | 35.35976 | 23.14257 | 36677 ft | 493 kts | 141° |
| 2026-04-18 13:05 | 35.30617 | 23.19518 | 36696 ft | 494 kts | 141° |
| 2026-04-18 13:05 | 35.25248 | 23.24780 | 36715 ft | 495 kts | 141° |
| 2026-04-18 13:06 | 35.19863 | 23.30047 | 36732 ft | 495 kts | 141° |
| 2026-04-18 13:06 | 35.14478 | 23.35307 | 36748 ft | 496 kts | 142° |
| 2026-04-18 13:07 | 35.09081 | 23.40568 | 36765 ft | 497 kts | 142° |
| 2026-04-18 13:07 | 35.03673 | 23.45831 | 36781 ft | 497 kts | 142° |
| 2026-04-18 13:08 | 34.98254 | 23.51095 | 36795 ft | 498 kts | 142° |
| 2026-04-18 13:08 | 34.92833 | 23.56352 | 36808 ft | 499 kts | 142° |
| 2026-04-18 13:09 | 34.87397 | 23.61615 | 36822 ft | 499 kts | 142° |
| 2026-04-18 13:09 | 34.81956 | 23.66873 | 36836 ft | 500 kts | 142° |
| 2026-04-18 13:10 | 34.76537 | 23.72101 | 36846 ft | 500 kts | 142° |
| 2026-04-18 13:10 | 34.71085 | 23.77351 | 36848 ft | 500 kts | 142° |
| 2026-04-18 13:11 | 34.65638 | 23.82588 | 36855 ft | 499 kts | 142° |
| 2026-04-18 13:11 | 34.62929 | 23.85189 | 36971 ft | 495 kts | 142° |
| 2026-04-18 13:11 | 34.60231 | 23.87778 | 37097 ft | 492 kts | 142° |
| 2026-04-18 13:12 | 34.57553 | 23.90344 | 37224 ft | 489 kts | 142° |
| 2026-04-18 13:12 | 34.54896 | 23.92889 | 37351 ft | 486 kts | 142° |
| 2026-04-18 13:12 | 34.52250 | 23.95422 | 37478 ft | 482 kts | 142° |
| 2026-04-18 13:12 | 34.49621 | 23.97935 | 37605 ft | 479 kts | 142° |
| 2026-04-18 13:13 | 34.47021 | 24.00419 | 37730 ft | 475 kts | 142° |
| 2026-04-18 13:13 | 34.44431 | 24.02891 | 37858 ft | 472 kts | 142° |
| 2026-04-18 13:13 | 34.41864 | 24.05339 | 37985 ft | 468 kts | 142° |
| 2026-04-18 13:13 | 34.39318 | 24.07766 | 38112 ft | 464 kts | 142° |
| 2026-04-18 13:14 | 34.36786 | 24.10177 | 38239 ft | 460 kts | 142° |
| 2026-04-18 13:14 | 34.34281 | 24.12560 | 38366 ft | 456 kts | 142° |
| 2026-04-18 13:14 | 34.31795 | 24.14924 | 38494 ft | 452 kts | 142° |
| 2026-04-18 13:14 | 34.29334 | 24.17263 | 38621 ft | 448 kts | 142° |
| 2026-04-18 13:15 | 34.26890 | 24.19583 | 38749 ft | 444 kts | 142° |
| 2026-04-18 13:15 | 34.24470 | 24.21878 | 38862 ft | 440 kts | 142° |
| 2026-04-18 13:15 | 34.19673 | 24.26424 | 38919 ft | 437 kts | 142° |
| 2026-04-18 13:16 | 34.14903 | 24.30937 | 38922 ft | 434 kts | 142° |
| 2026-04-18 13:16 | 34.10149 | 24.35428 | 38915 ft | 432 kts | 142° |
| 2026-04-18 13:17 | 34.05420 | 24.39889 | 38885 ft | 431 kts | 142° |
| 2026-04-18 13:17 | 34.00683 | 24.44265 | 38992 ft | 426 kts | 145° |
| 2026-04-18 13:18 | 33.95894 | 24.48461 | 38999 ft | 425 kts | 140° |
| 2026-04-18 13:18 | 33.91623 | 24.53364 | 39000 ft | 424 kts | 135° |
| 2026-04-18 13:19 | 33.87436 | 24.58349 | 39000 ft | 423 kts | 136° |
| 2026-04-18 13:19 | 33.83135 | 24.63155 | 39000 ft | 421 kts | 138° |
| 2026-04-18 13:20 | 33.78824 | 24.67792 | 38999 ft | 424 kts | 139° |
| 2026-04-18 13:20 | 33.74409 | 24.72496 | 38979 ft | 431 kts | 139° |
| 2026-04-18 13:21 | 33.72109 | 24.74947 | 38700 ft | 442 kts | 139° |
| 2026-04-18 13:21 | 33.69775 | 24.77435 | 38423 ft | 454 kts | 139° |
| 2026-04-18 13:21 | 33.67388 | 24.79981 | 38124 ft | 465 kts | 139° |
| 2026-04-18 13:21 | 33.64939 | 24.82593 | 37835 ft | 477 kts | 139° |
| 2026-04-18 13:22 | 33.62429 | 24.85269 | 37543 ft | 488 kts | 139° |
| 2026-04-18 13:22 | 33.59909 | 24.87953 | 37262 ft | 492 kts | 139° |
| 2026-04-18 13:22 | 33.57355 | 24.90672 | 37032 ft | 492 kts | 139° |
| 2026-04-18 13:22 | 33.54877 | 24.93309 | 36997 ft | 492 kts | 139° |
| 2026-04-18 13:23 | 33.49821 | 24.98680 | 37000 ft | 492 kts | 139° |
| 2026-04-18 13:23 | 33.44691 | 25.04119 | 37000 ft | 491 kts | 139° |
| 2026-04-18 13:24 | 33.39572 | 25.09539 | 37000 ft | 491 kts | 139° |
| 2026-04-18 13:24 | 33.34456 | 25.14946 | 37000 ft | 491 kts | 139° |
| 2026-04-18 13:25 | 33.29330 | 25.20354 | 36999 ft | 491 kts | 139° |
| 2026-04-18 13:25 | 33.24168 | 25.25792 | 37000 ft | 491 kts | 139° |
| 2026-04-18 13:26 | 33.19073 | 25.31151 | 37000 ft | 491 kts | 139° |
| 2026-04-18 13:26 | 33.13946 | 25.36534 | 36999 ft | 491 kts | 139° |
| 2026-04-18 13:27 | 33.08807 | 25.41921 | 37000 ft | 491 kts | 139° |
| 2026-04-18 13:27 | 33.03677 | 25.47291 | 37000 ft | 491 kts | 139° |
| 2026-04-18 13:28 | 32.98540 | 25.52658 | 37000 ft | 491 kts | 139° |
| 2026-04-18 13:28 | 32.93403 | 25.58018 | 37000 ft | 491 kts | 139° |
| 2026-04-18 13:29 | 32.88256 | 25.63378 | 37000 ft | 491 kts | 139° |
| 2026-04-18 13:29 | 32.83109 | 25.68732 | 37000 ft | 491 kts | 139° |
| 2026-04-18 13:30 | 32.77964 | 25.74073 | 37001 ft | 491 kts | 139° |
| 2026-04-18 13:30 | 32.72815 | 25.79410 | 37000 ft | 491 kts | 139° |
| 2026-04-18 13:31 | 32.67665 | 25.84740 | 37000 ft | 491 kts | 139° |
| 2026-04-18 13:31 | 32.62508 | 25.90069 | 37000 ft | 491 kts | 139° |
| 2026-04-18 13:32 | 32.57355 | 25.95386 | 37000 ft | 491 kts | 139° |
| 2026-04-18 13:32 | 32.52198 | 26.00697 | 37000 ft | 491 kts | 139° |
| 2026-04-18 13:33 | 32.47039 | 26.06003 | 37000 ft | 491 kts | 139° |
| 2026-04-18 13:33 | 32.41884 | 26.11296 | 37000 ft | 491 kts | 139° |
| 2026-04-18 13:34 | 32.36717 | 26.16593 | 37001 ft | 491 kts | 139° |
| 2026-04-18 13:34 | 32.32391 | 26.21021 | 37000 ft | 491 kts | 139° |
| 2026-04-18 13:35 | 32.27257 | 26.26269 | 37000 ft | 491 kts | 140° |
| 2026-04-18 13:35 | 32.22088 | 26.31545 | 37000 ft | 491 kts | 140° |
| 2026-04-18 13:36 | 32.16918 | 26.36813 | 37000 ft | 491 kts | 140° |
| 2026-04-18 13:36 | 32.11739 | 26.42082 | 37000 ft | 491 kts | 140° |
| 2026-04-18 13:37 | 32.06559 | 26.47345 | 37000 ft | 491 kts | 140° |
| 2026-04-18 13:37 | 32.01381 | 26.52597 | 37000 ft | 491 kts | 140° |
| 2026-04-18 13:38 | 31.96204 | 26.57840 | 37000 ft | 491 kts | 140° |
| 2026-04-18 13:38 | 31.91023 | 26.63078 | 37000 ft | 491 kts | 140° |
| 2026-04-18 13:39 | 31.85833 | 26.68318 | 37000 ft | 491 kts | 140° |
| 2026-04-18 13:39 | 31.80649 | 26.73544 | 37000 ft | 491 kts | 140° |
| 2026-04-18 13:40 | 31.75458 | 26.78769 | 37000 ft | 491 kts | 140° |
| 2026-04-18 13:40 | 31.70264 | 26.83988 | 37000 ft | 491 kts | 140° |
| 2026-04-18 13:41 | 31.65073 | 26.89197 | 36999 ft | 491 kts | 140° |
| 2026-04-18 13:41 | 31.59915 | 26.94365 | 37000 ft | 491 kts | 140° |
| 2026-04-18 13:42 | 31.54682 | 26.99600 | 37001 ft | 491 kts | 140° |
| 2026-04-18 13:42 | 31.49482 | 27.04794 | 37000 ft | 491 kts | 140° |
| 2026-04-18 13:43 | 31.44314 | 27.09948 | 37000 ft | 491 kts | 140° |
| 2026-04-18 13:43 | 31.39106 | 27.15135 | 37001 ft | 491 kts | 140° |
| 2026-04-18 13:44 | 31.33925 | 27.20338 | 36997 ft | 491 kts | 137° |
| 2026-04-18 13:44 | 31.29536 | 27.26442 | 37000 ft | 492 kts | 126° |
| 2026-04-18 13:45 | 31.25647 | 27.33022 | 36999 ft | 492 kts | 124° |
| 2026-04-18 13:45 | 31.21836 | 27.39670 | 37000 ft | 492 kts | 124° |
| 2026-04-18 13:46 | 31.18018 | 27.46302 | 37000 ft | 492 kts | 124° |
| 2026-04-18 13:46 | 31.14176 | 27.52923 | 37000 ft | 492 kts | 124° |
| 2026-04-18 13:47 | 31.10303 | 27.59520 | 36999 ft | 493 kts | 125° |
| 2026-04-18 13:47 | 31.06377 | 27.66074 | 37001 ft | 493 kts | 125° |
| 2026-04-18 13:48 | 31.02446 | 27.72622 | 37000 ft | 493 kts | 125° |
| 2026-04-18 13:48 | 30.98520 | 27.79172 | 37000 ft | 493 kts | 125° |
| 2026-04-18 13:49 | 30.94592 | 27.85725 | 37000 ft | 493 kts | 125° |
| 2026-04-18 13:49 | 30.90663 | 27.92271 | 37000 ft | 493 kts | 125° |
| 2026-04-18 13:50 | 30.86733 | 27.98807 | 37000 ft | 493 kts | 125° |
| 2026-04-18 13:50 | 30.82845 | 28.05261 | 37000 ft | 493 kts | 125° |
| 2026-04-18 13:51 | 30.78859 | 28.11865 | 37000 ft | 493 kts | 125° |
| 2026-04-18 13:51 | 30.74921 | 28.18383 | 37000 ft | 493 kts | 125° |
| 2026-04-18 13:52 | 30.70977 | 28.24898 | 36999 ft | 493 kts | 125° |
| 2026-04-18 13:52 | 30.67022 | 28.31419 | 37000 ft | 493 kts | 125° |
| 2026-04-18 13:53 | 30.63073 | 28.37922 | 37000 ft | 493 kts | 126° |
| 2026-04-18 13:53 | 30.59120 | 28.44419 | 37000 ft | 493 kts | 126° |
| 2026-04-18 13:54 | 30.55161 | 28.50916 | 37000 ft | 493 kts | 126° |
| 2026-04-18 13:54 | 30.51200 | 28.57405 | 37000 ft | 493 kts | 126° |
| 2026-04-18 13:55 | 30.47234 | 28.63892 | 37000 ft | 493 kts | 126° |
| 2026-04-18 13:55 | 30.43264 | 28.70376 | 37000 ft | 493 kts | 126° |
| 2026-04-18 13:56 | 30.39290 | 28.76855 | 37001 ft | 493 kts | 126° |
| 2026-04-18 13:56 | 30.35319 | 28.83319 | 37000 ft | 492 kts | 126° |
| 2026-04-18 13:57 | 30.31346 | 28.89776 | 37000 ft | 492 kts | 126° |
| 2026-04-18 13:57 | 30.27376 | 28.96217 | 37000 ft | 492 kts | 126° |
| 2026-04-18 13:58 | 30.23402 | 29.02655 | 36999 ft | 492 kts | 126° |
| 2026-04-18 13:58 | 30.19424 | 29.09090 | 37000 ft | 492 kts | 126° |
| 2026-04-18 13:59 | 30.15449 | 29.15526 | 37000 ft | 492 kts | 126° |
| 2026-04-18 13:59 | 30.11502 | 29.21930 | 37000 ft | 492 kts | 125° |
| 2026-04-18 14:00 | 30.07582 | 29.28417 | 37000 ft | 493 kts | 125° |
| 2026-04-18 14:00 | 30.03675 | 29.34916 | 37003 ft | 493 kts | 125° |
| 2026-04-18 14:01 | 29.99756 | 29.41410 | 36999 ft | 493 kts | 125° |
| 2026-04-18 14:01 | 29.95829 | 29.47892 | 37000 ft | 493 kts | 125° |
| 2026-04-18 14:02 | 29.91896 | 29.54369 | 37000 ft | 493 kts | 125° |
| 2026-04-18 14:02 | 29.87959 | 29.60841 | 37002 ft | 493 kts | 125° |
| 2026-04-18 14:03 | 29.84021 | 29.67308 | 36999 ft | 493 kts | 125° |
| 2026-04-18 14:03 | 29.80077 | 29.73773 | 37000 ft | 493 kts | 125° |
| 2026-04-18 14:04 | 29.76132 | 29.80228 | 37000 ft | 493 kts | 125° |
| 2026-04-18 14:04 | 29.72183 | 29.86681 | 36999 ft | 493 kts | 125° |
| 2026-04-18 14:05 | 29.68232 | 29.93127 | 37000 ft | 494 kts | 126° |
| 2026-04-18 14:05 | 29.64269 | 29.99583 | 37000 ft | 494 kts | 126° |
| 2026-04-18 14:06 | 29.60304 | 30.06031 | 37000 ft | 494 kts | 126° |
| 2026-04-18 14:06 | 29.56338 | 30.12471 | 36999 ft | 494 kts | 126° |
| 2026-04-18 14:07 | 29.52365 | 30.18912 | 37000 ft | 494 kts | 126° |
| 2026-04-18 14:07 | 29.48390 | 30.25347 | 37001 ft | 494 kts | 126° |
| 2026-04-18 14:08 | 29.42433 | 30.34971 | 37001 ft | 492 kts | 126° |
| 2026-04-18 14:09 | 29.38186 | 30.41104 | 37001 ft | 491 kts | 133° |
| 2026-04-18 14:09 | 29.33500 | 30.46822 | 37000 ft | 492 kts | 134° |
| 2026-04-18 14:10 | 29.28753 | 30.52464 | 37000 ft | 492 kts | 134° |
| 2026-04-18 14:10 | 29.24002 | 30.58097 | 37000 ft | 492 kts | 134° |
| 2026-04-18 14:11 | 29.19257 | 30.63732 | 37001 ft | 492 kts | 134° |
| 2026-04-18 14:11 | 29.14542 | 30.69332 | 37000 ft | 491 kts | 134° |
| 2026-04-18 14:12 | 29.09797 | 30.74962 | 37000 ft | 491 kts | 134° |
| 2026-04-18 14:12 | 29.05047 | 30.80588 | 37001 ft | 492 kts | 134° |
| 2026-04-18 14:13 | 29.00261 | 30.86250 | 37000 ft | 492 kts | 134° |
| 2026-04-18 14:13 | 28.95512 | 30.91858 | 37000 ft | 492 kts | 134° |
| 2026-04-18 14:14 | 28.90755 | 30.97469 | 37001 ft | 492 kts | 134° |
| 2026-04-18 14:14 | 28.85994 | 31.03077 | 37000 ft | 492 kts | 134° |
| 2026-04-18 14:15 | 28.81232 | 31.08679 | 37000 ft | 492 kts | 134° |
| 2026-04-18 14:15 | 28.76458 | 31.14286 | 37000 ft | 492 kts | 134° |
| 2026-04-18 14:16 | 28.71687 | 31.19882 | 37001 ft | 493 kts | 134° |
| 2026-04-18 14:16 | 28.67739 | 31.24558 | 36999 ft | 493 kts | 133° |
| 2026-04-18 14:17 | 28.63145 | 31.30363 | 37002 ft | 493 kts | 132° |
| 2026-04-18 14:17 | 28.56297 | 31.39106 | 36999 ft | 493 kts | 132° |
| 2026-04-18 14:18 | 28.49394 | 31.47793 | 37000 ft | 494 kts | 133° |
| 2026-04-18 14:19 | 28.42469 | 31.56465 | 37000 ft | 494 kts | 133° |
| 2026-04-18 14:20 | 28.35533 | 31.65135 | 37000 ft | 494 kts | 133° |
| 2026-04-18 14:20 | 28.30907 | 31.70909 | 37000 ft | 495 kts | 133° |
| 2026-04-18 14:21 | 28.26348 | 31.76592 | 37000 ft | 495 kts | 133° |
| 2026-04-18 14:21 | 28.21708 | 31.82367 | 36998 ft | 495 kts | 133° |
| 2026-04-18 14:22 | 28.14807 | 31.90943 | 37001 ft | 495 kts | 133° |
| 2026-04-18 14:23 | 28.07864 | 31.99551 | 37000 ft | 496 kts | 133° |
| 2026-04-18 14:23 | 28.01592 | 32.08820 | 37000 ft | 496 kts | 120° |
| 2026-04-18 14:24 | 27.96587 | 32.19068 | 37000 ft | 497 kts | 118° |
| 2026-04-18 14:25 | 27.93302 | 32.25956 | 37000 ft | 498 kts | 118° |
| 2026-04-18 14:25 | 27.90000 | 32.32828 | 37000 ft | 498 kts | 119° |
| 2026-04-18 14:26 | 27.86675 | 32.39705 | 37000 ft | 497 kts | 119° |
| 2026-04-18 14:26 | 27.83375 | 32.46511 | 37000 ft | 497 kts | 119° |
| 2026-04-18 14:27 | 27.80053 | 32.53353 | 37000 ft | 497 kts | 119° |
| 2026-04-18 14:27 | 27.76728 | 32.60191 | 37000 ft | 497 kts | 119° |
| 2026-04-18 14:28 | 27.73399 | 32.67025 | 37000 ft | 496 kts | 119° |
| 2026-04-18 14:28 | 27.70075 | 32.73840 | 37000 ft | 496 kts | 119° |
| 2026-04-18 14:29 | 27.66745 | 32.80655 | 37001 ft | 496 kts | 119° |
| 2026-04-18 14:29 | 27.63413 | 32.87463 | 36999 ft | 497 kts | 119° |
| 2026-04-18 14:30 | 27.60065 | 32.94293 | 37001 ft | 497 kts | 119° |
| 2026-04-18 14:30 | 27.56717 | 33.01113 | 37000 ft | 497 kts | 119° |
| 2026-04-18 14:31 | 27.53365 | 33.07929 | 37000 ft | 496 kts | 119° |
| 2026-04-18 14:31 | 27.50016 | 33.14728 | 37000 ft | 496 kts | 119° |
| 2026-04-18 14:32 | 27.46670 | 33.21511 | 37001 ft | 495 kts | 119° |
| 2026-04-18 14:32 | 27.43324 | 33.28283 | 37000 ft | 494 kts | 119° |
| 2026-04-18 14:33 | 27.39978 | 33.35045 | 37000 ft | 494 kts | 119° |
| 2026-04-18 14:33 | 27.36635 | 33.41795 | 37000 ft | 494 kts | 119° |
| 2026-04-18 14:34 | 27.33288 | 33.48538 | 37000 ft | 493 kts | 119° |
| 2026-04-18 14:34 | 27.29931 | 33.55282 | 37000 ft | 493 kts | 119° |
| 2026-04-18 14:35 | 27.26580 | 33.62004 | 37000 ft | 493 kts | 120° |
| 2026-04-18 14:35 | 27.23221 | 33.68738 | 37000 ft | 493 kts | 120° |
| 2026-04-18 14:36 | 27.19889 | 33.75406 | 37000 ft | 493 kts | 120° |
| 2026-04-18 14:36 | 27.16857 | 33.82297 | 37000 ft | 492 kts | 113° |
| 2026-04-18 14:37 | 27.14261 | 33.89423 | 37000 ft | 492 kts | 112° |
| 2026-04-18 14:37 | 27.11738 | 33.96566 | 37000 ft | 492 kts | 111° |
| 2026-04-18 14:38 | 27.09210 | 34.03713 | 37000 ft | 492 kts | 112° |
| 2026-04-18 14:38 | 27.06669 | 34.10846 | 37000 ft | 492 kts | 112° |
| 2026-04-18 14:39 | 27.04119 | 34.17979 | 37000 ft | 492 kts | 112° |
| 2026-04-18 14:39 | 27.01566 | 34.25103 | 37001 ft | 492 kts | 112° |
| 2026-04-18 14:40 | 26.99008 | 34.32228 | 37000 ft | 492 kts | 112° |
| 2026-04-18 14:40 | 26.96445 | 34.39350 | 37000 ft | 492 kts | 112° |
| 2026-04-18 14:41 | 26.93879 | 34.46467 | 36999 ft | 492 kts | 112° |
| 2026-04-18 14:41 | 26.91314 | 34.53569 | 37000 ft | 492 kts | 112° |
| 2026-04-18 14:42 | 26.88739 | 34.60688 | 37000 ft | 492 kts | 112° |
| 2026-04-18 14:42 | 26.86163 | 34.67797 | 37000 ft | 492 kts | 112° |
| 2026-04-18 14:43 | 26.83585 | 34.74897 | 37000 ft | 492 kts | 112° |
| 2026-04-18 14:43 | 26.81003 | 34.81996 | 37000 ft | 492 kts | 112° |
| 2026-04-18 14:44 | 26.78416 | 34.89095 | 37001 ft | 492 kts | 112° |
| 2026-04-18 14:44 | 26.75830 | 34.96188 | 37000 ft | 492 kts | 112° |
| 2026-04-18 14:45 | 26.73239 | 35.03282 | 37000 ft | 492 kts | 112° |
| 2026-04-18 14:45 | 26.70642 | 35.10369 | 37001 ft | 492 kts | 112° |
| 2026-04-18 14:46 | 26.68044 | 35.17451 | 37000 ft | 492 kts | 112° |
| 2026-04-18 14:46 | 26.65442 | 35.24534 | 37000 ft | 492 kts | 112° |
| 2026-04-18 14:47 | 26.62836 | 35.31614 | 37000 ft | 492 kts | 112° |
| 2026-04-18 14:47 | 26.60227 | 35.38690 | 37000 ft | 492 kts | 112° |
| 2026-04-18 14:48 | 26.57617 | 35.45759 | 37000 ft | 492 kts | 112° |
| 2026-04-18 14:48 | 26.54990 | 35.52823 | 37000 ft | 492 kts | 113° |
| 2026-04-18 14:49 | 26.52300 | 35.59851 | 37000 ft | 492 kts | 113° |
| 2026-04-18 14:49 | 26.49594 | 35.66879 | 37000 ft | 492 kts | 113° |
| 2026-04-18 14:50 | 26.46896 | 35.73906 | 37000 ft | 492 kts | 113° |
| 2026-04-18 14:50 | 26.44202 | 35.80932 | 37000 ft | 492 kts | 113° |
| 2026-04-18 14:51 | 26.41505 | 35.87953 | 37000 ft | 492 kts | 113° |
| 2026-04-18 14:51 | 26.38803 | 35.94976 | 37000 ft | 492 kts | 113° |
| 2026-04-18 14:52 | 26.36097 | 36.01996 | 37000 ft | 492 kts | 113° |
| 2026-04-18 14:52 | 26.33387 | 36.09014 | 37000 ft | 492 kts | 113° |
| 2026-04-18 14:53 | 26.30693 | 36.15979 | 37000 ft | 492 kts | 113° |
| 2026-04-18 14:53 | 26.27976 | 36.22992 | 37000 ft | 492 kts | 114° |
| 2026-04-18 14:54 | 26.25258 | 36.29993 | 37000 ft | 492 kts | 114° |
| 2026-04-18 14:54 | 26.22535 | 36.36996 | 37000 ft | 492 kts | 114° |
| 2026-04-18 14:55 | 26.19812 | 36.43988 | 37000 ft | 492 kts | 114° |
| 2026-04-18 14:55 | 26.16883 | 36.50875 | 37000 ft | 492 kts | 118° |
| 2026-04-18 14:56 | 26.13634 | 36.57586 | 37000 ft | 492 kts | 119° |
| 2026-04-18 14:56 | 26.10338 | 36.64264 | 37000 ft | 492 kts | 119° |
| 2026-04-18 14:57 | 26.07030 | 36.70948 | 37000 ft | 492 kts | 119° |
| 2026-04-18 14:57 | 26.03779 | 36.77519 | 36998 ft | 494 kts | 119° |
| 2026-04-18 14:58 | 26.00460 | 36.84226 | 36999 ft | 496 kts | 119° |
| 2026-04-18 14:58 | 25.97129 | 36.90948 | 37000 ft | 497 kts | 119° |
| 2026-04-18 14:59 | 25.94348 | 36.96553 | 37000 ft | 499 kts | 119° |
| 2026-04-18 14:59 | 25.90987 | 37.03316 | 36999 ft | 500 kts | 119° |
| 2026-04-18 15:00 | 25.87612 | 37.10096 | 36999 ft | 502 kts | 119° |
| 2026-04-18 15:00 | 25.84225 | 37.16892 | 37000 ft | 503 kts | 119° |
| 2026-04-18 15:01 | 25.80848 | 37.23657 | 37000 ft | 505 kts | 119° |
| 2026-04-18 15:01 | 25.77447 | 37.30482 | 36999 ft | 506 kts | 119° |
| 2026-04-18 15:02 | 25.74039 | 37.37333 | 37000 ft | 507 kts | 119° |
| 2026-04-18 15:02 | 25.70675 | 37.44085 | 37000 ft | 509 kts | 119° |
| 2026-04-18 15:03 | 25.67240 | 37.50966 | 37000 ft | 510 kts | 119° |
| 2026-04-18 15:03 | 25.63801 | 37.57844 | 37000 ft | 511 kts | 119° |
| 2026-04-18 15:04 | 25.60352 | 37.64730 | 37000 ft | 512 kts | 119° |
| 2026-04-18 15:04 | 25.56889 | 37.71634 | 36999 ft | 513 kts | 119° |
| 2026-04-18 15:05 | 25.53421 | 37.78537 | 37000 ft | 514 kts | 119° |
| 2026-04-18 15:05 | 25.49944 | 37.85450 | 37000 ft | 514 kts | 119° |
| 2026-04-18 15:06 | 25.46458 | 37.92368 | 37000 ft | 515 kts | 119° |
| 2026-04-18 15:06 | 25.42986 | 37.99248 | 37000 ft | 515 kts | 119° |
| 2026-04-18 15:07 | 25.39484 | 38.06177 | 37000 ft | 516 kts | 119° |
| 2026-04-18 15:07 | 25.35954 | 38.13152 | 37000 ft | 517 kts | 119° |
| 2026-04-18 15:08 | 25.32437 | 38.20090 | 37000 ft | 517 kts | 120° |
| 2026-04-18 15:08 | 25.28932 | 38.26994 | 36730 ft | 523 kts | 120° |
| 2026-04-18 15:08 | 25.27133 | 38.30533 | 36244 ft | 533 kts | 120° |
| 2026-04-18 15:09 | 25.25301 | 38.34135 | 35770 ft | 542 kts | 120° |
| 2026-04-18 15:09 | 25.23445 | 38.37780 | 35528 ft | 546 kts | 120° |
| 2026-04-18 15:09 | 25.21585 | 38.41433 | 35496 ft | 545 kts | 120° |
| 2026-04-18 15:10 | 25.17873 | 38.48712 | 35500 ft | 542 kts | 120° |
| 2026-04-18 15:10 | 25.14173 | 38.55953 | 35499 ft | 541 kts | 120° |
| 2026-04-18 15:10 | 25.12318 | 38.59575 | 35377 ft | 542 kts | 120° |
| 2026-04-18 15:11 | 25.10452 | 38.63213 | 35159 ft | 546 kts | 120° |
| 2026-04-18 15:11 | 25.06736 | 38.70448 | 35301 ft | 540 kts | 120° |
| 2026-04-18 15:11 | 25.04891 | 38.74039 | 35553 ft | 534 kts | 120° |
| 2026-04-18 15:12 | 25.03071 | 38.77579 | 35808 ft | 529 kts | 120° |
| 2026-04-18 15:12 | 25.01266 | 38.81086 | 36062 ft | 523 kts | 120° |
| 2026-04-18 15:12 | 24.99475 | 38.84563 | 36316 ft | 518 kts | 120° |
| 2026-04-18 15:12 | 24.97700 | 38.88009 | 36571 ft | 513 kts | 120° |
| 2026-04-18 15:13 | 24.95940 | 38.91420 | 36825 ft | 508 kts | 120° |
| 2026-04-18 15:13 | 24.94198 | 38.94796 | 36983 ft | 506 kts | 120° |
| 2026-04-18 15:13 | 24.92480 | 38.98119 | 37003 ft | 506 kts | 120° |
| 2026-04-18 15:14 | 24.88989 | 39.04860 | 37000 ft | 507 kts | 120° |
| 2026-04-18 15:14 | 24.85479 | 39.11628 | 37000 ft | 509 kts | 120° |
| 2026-04-18 15:15 | 24.80203 | 39.21788 | 37000 ft | 510 kts | 120° |
| 2026-04-18 15:15 | 24.76663 | 39.28597 | 37000 ft | 512 kts | 120° |
| 2026-04-18 15:16 | 24.73112 | 39.35414 | 37000 ft | 513 kts | 120° |
| 2026-04-18 15:16 | 24.69560 | 39.42223 | 36999 ft | 514 kts | 120° |
| 2026-04-18 15:17 | 24.65999 | 39.49040 | 36999 ft | 515 kts | 120° |
| 2026-04-18 15:17 | 24.62428 | 39.55868 | 36999 ft | 515 kts | 120° |
| 2026-04-18 15:18 | 24.58852 | 39.62695 | 37000 ft | 516 kts | 120° |
| 2026-04-18 15:18 | 24.55559 | 39.69694 | 37001 ft | 517 kts | 110° |
| 2026-04-18 15:19 | 24.54058 | 39.77391 | 36999 ft | 517 kts | 97° |
| 2026-04-18 15:19 | 24.53256 | 39.85248 | 36999 ft | 518 kts | 96° |
| 2026-04-18 15:20 | 24.52552 | 39.93098 | 37000 ft | 518 kts | 96° |
| 2026-04-18 15:20 | 24.51824 | 40.00939 | 37000 ft | 519 kts | 96° |
| 2026-04-18 15:21 | 24.51063 | 40.08829 | 37000 ft | 519 kts | 96° |
| 2026-04-18 15:21 | 24.50288 | 40.16731 | 37000 ft | 520 kts | 96° |
| 2026-04-18 15:22 | 24.49510 | 40.24622 | 37000 ft | 520 kts | 96° |
| 2026-04-18 15:22 | 24.48732 | 40.32474 | 37000 ft | 520 kts | 96° |
| 2026-04-18 15:23 | 24.47946 | 40.40381 | 37000 ft | 520 kts | 96° |
| 2026-04-18 15:23 | 24.47156 | 40.48280 | 37000 ft | 521 kts | 96° |
| 2026-04-18 15:24 | 24.46361 | 40.56184 | 37000 ft | 521 kts | 96° |
| 2026-04-18 15:24 | 24.45562 | 40.64092 | 37000 ft | 521 kts | 96° |
| 2026-04-18 15:25 | 24.44758 | 40.71992 | 37000 ft | 521 kts | 96° |
| 2026-04-18 15:25 | 24.43948 | 40.79895 | 37000 ft | 521 kts | 96° |
| 2026-04-18 15:26 | 24.43136 | 40.87789 | 37000 ft | 521 kts | 97° |
| 2026-04-18 15:26 | 24.42318 | 40.95696 | 37000 ft | 521 kts | 97° |
| 2026-04-18 15:27 | 24.41496 | 41.03601 | 37000 ft | 521 kts | 97° |
| 2026-04-18 15:27 | 24.40675 | 41.11504 | 37000 ft | 521 kts | 97° |
| 2026-04-18 15:28 | 24.40390 | 41.14232 | 37000 ft | 521 kts | 97° |
| 2026-04-18 15:28 | 24.39539 | 41.22082 | 37008 ft | 512 kts | 99° |
| 2026-04-18 15:29 | 24.38615 | 41.29822 | 37001 ft | 511 kts | 99° |
| 2026-04-18 15:29 | 24.37758 | 41.37438 | 37006 ft | 491 kts | 98° |
| 2026-04-18 15:30 | 24.37368 | 41.41116 | 37009 ft | 480 kts | 98° |
| 2026-04-18 15:30 | 24.36983 | 41.44759 | 37006 ft | 481 kts | 98° |
| 2026-04-18 15:30 | 24.36202 | 41.52053 | 37000 ft | 482 kts | 98° |
| 2026-04-18 15:31 | 24.35419 | 41.59318 | 37000 ft | 483 kts | 98° |
| 2026-04-18 15:31 | 24.35063 | 41.62603 | 37000 ft | 484 kts | 98° |
| 2026-04-18 15:32 | 24.34279 | 41.69871 | 37008 ft | 462 kts | 98° |
| 2026-04-18 15:32 | 24.33541 | 41.76741 | 37002 ft | 458 kts | 98° |
| 2026-04-18 15:33 | 24.32524 | 41.83665 | 37001 ft | 460 kts | 106° |
| 2026-04-18 15:33 | 24.30851 | 41.90448 | 36999 ft | 462 kts | 108° |
| 2026-04-18 15:34 | 24.29056 | 41.97234 | 36999 ft | 465 kts | 108° |
| 2026-04-18 15:34 | 24.27238 | 42.04053 | 36999 ft | 467 kts | 108° |
| 2026-04-18 15:35 | 24.25424 | 42.10895 | 37000 ft | 469 kts | 108° |
| 2026-04-18 15:35 | 24.23607 | 42.17761 | 37000 ft | 471 kts | 108° |
| 2026-04-18 15:36 | 24.21779 | 42.24662 | 36999 ft | 472 kts | 108° |
| 2026-04-18 15:36 | 24.19942 | 42.31583 | 36999 ft | 474 kts | 108° |
| 2026-04-18 15:37 | 24.18094 | 42.38530 | 36999 ft | 476 kts | 108° |
| 2026-04-18 15:37 | 24.16236 | 42.45501 | 36999 ft | 477 kts | 108° |
| 2026-04-18 15:38 | 24.14371 | 42.52481 | 37000 ft | 479 kts | 108° |
| 2026-04-18 15:38 | 24.12495 | 42.59491 | 37000 ft | 480 kts | 108° |
| 2026-04-18 15:39 | 24.10598 | 42.66566 | 36999 ft | 481 kts | 108° |
| 2026-04-18 15:39 | 24.08720 | 42.73555 | 36999 ft | 483 kts | 108° |
| 2026-04-18 15:40 | 24.06821 | 42.80612 | 36999 ft | 484 kts | 108° |
| 2026-04-18 15:40 | 24.04914 | 42.87680 | 37000 ft | 485 kts | 108° |
| 2026-04-18 15:41 | 24.02999 | 42.94768 | 37000 ft | 486 kts | 108° |
| 2026-04-18 15:41 | 24.01074 | 43.01869 | 37000 ft | 487 kts | 108° |
| 2026-04-18 15:42 | 23.99472 | 43.07772 | 37000 ft | 488 kts | 108° |
| 2026-04-18 15:42 | 23.97536 | 43.14892 | 37000 ft | 489 kts | 108° |
| 2026-04-18 15:43 | 23.95592 | 43.22026 | 37000 ft | 490 kts | 108° |
| 2026-04-18 15:43 | 23.93642 | 43.29168 | 37000 ft | 491 kts | 108° |
| 2026-04-18 15:44 | 23.91686 | 43.36320 | 37000 ft | 491 kts | 108° |
| 2026-04-18 15:44 | 23.89724 | 43.43479 | 37000 ft | 492 kts | 108° |
| 2026-04-18 15:45 | 23.87756 | 43.50646 | 37000 ft | 493 kts | 108° |
| 2026-04-18 15:45 | 23.85782 | 43.57819 | 37000 ft | 494 kts | 108° |
| 2026-04-18 15:46 | 23.83800 | 43.65008 | 37000 ft | 494 kts | 108° |
| 2026-04-18 15:46 | 23.81816 | 43.72193 | 37000 ft | 495 kts | 108° |
| 2026-04-18 15:47 | 23.79825 | 43.79386 | 37000 ft | 495 kts | 109° |
| 2026-04-18 15:47 | 23.77840 | 43.86610 | 36990 ft | 496 kts | 107° |
| 2026-04-18 15:48 | 23.76811 | 43.94052 | 37002 ft | 496 kts | 97° |
| 2026-04-18 15:48 | 23.76218 | 44.01561 | 37000 ft | 497 kts | 96° |
| 2026-04-18 15:49 | 23.75687 | 44.09093 | 37000 ft | 497 kts | 96° |
| 2026-04-18 15:49 | 23.75142 | 44.16621 | 37000 ft | 498 kts | 96° |
| 2026-04-18 15:50 | 23.74577 | 44.24161 | 37000 ft | 498 kts | 96° |
| 2026-04-18 15:50 | 23.74004 | 44.31694 | 37000 ft | 499 kts | 96° |
| 2026-04-18 15:51 | 23.73426 | 44.39243 | 37000 ft | 499 kts | 96° |
| 2026-04-18 15:51 | 23.72847 | 44.46760 | 37000 ft | 499 kts | 96° |
| 2026-04-18 15:52 | 23.72263 | 44.54314 | 37000 ft | 500 kts | 96° |
| 2026-04-18 15:52 | 23.71673 | 44.61878 | 37000 ft | 500 kts | 96° |
| 2026-04-18 15:53 | 23.71080 | 44.69442 | 37000 ft | 500 kts | 97° |
| 2026-04-18 15:53 | 23.70483 | 44.77010 | 37000 ft | 501 kts | 97° |
| 2026-04-18 15:54 | 23.69882 | 44.84580 | 37000 ft | 501 kts | 97° |
| 2026-04-18 15:54 | 23.69280 | 44.92157 | 37000 ft | 501 kts | 97° |
| 2026-04-18 15:55 | 23.68670 | 44.99739 | 37000 ft | 502 kts | 97° |
| 2026-04-18 15:55 | 23.68054 | 45.07323 | 37000 ft | 502 kts | 97° |
| 2026-04-18 15:56 | 23.67435 | 45.14910 | 37000 ft | 502 kts | 97° |
| 2026-04-18 15:56 | 23.66815 | 45.22495 | 37000 ft | 502 kts | 97° |
| 2026-04-18 15:57 | 23.66193 | 45.30087 | 37000 ft | 503 kts | 97° |
| 2026-04-18 15:57 | 23.65561 | 45.37682 | 37000 ft | 503 kts | 97° |
| 2026-04-18 15:58 | 23.64927 | 45.45272 | 37000 ft | 503 kts | 97° |
| 2026-04-18 15:58 | 23.64289 | 45.52876 | 37000 ft | 503 kts | 97° |
| 2026-04-18 15:59 | 23.63648 | 45.60473 | 37000 ft | 503 kts | 97° |
| 2026-04-18 15:59 | 23.63007 | 45.68076 | 37000 ft | 503 kts | 97° |
| 2026-04-18 16:00 | 23.62356 | 45.75682 | 37000 ft | 504 kts | 97° |
| 2026-04-18 16:00 | 23.61704 | 45.83240 | 37000 ft | 504 kts | 97° |
| 2026-04-18 16:01 | 23.61045 | 45.90845 | 37000 ft | 504 kts | 97° |
| 2026-04-18 16:01 | 23.60384 | 45.98448 | 37000 ft | 504 kts | 97° |
| 2026-04-18 16:02 | 23.59719 | 46.06058 | 37000 ft | 504 kts | 97° |
| 2026-04-18 16:02 | 23.59046 | 46.13720 | 37000 ft | 504 kts | 97° |
| 2026-04-18 16:03 | 23.58376 | 46.21290 | 37000 ft | 505 kts | 97° |
| 2026-04-18 16:03 | 23.57699 | 46.28910 | 37000 ft | 505 kts | 97° |
| 2026-04-18 16:04 | 23.57018 | 46.36525 | 37000 ft | 505 kts | 97° |
| 2026-04-18 16:04 | 23.56328 | 46.44193 | 37000 ft | 505 kts | 97° |
| 2026-04-18 16:05 | 23.55642 | 46.51784 | 37000 ft | 505 kts | 97° |
| 2026-04-18 16:05 | 23.54953 | 46.59406 | 37000 ft | 505 kts | 97° |
| 2026-04-18 16:06 | 23.54254 | 46.67030 | 37000 ft | 506 kts | 97° |
| 2026-04-18 16:06 | 23.53552 | 46.74654 | 37000 ft | 506 kts | 97° |
| 2026-04-18 16:07 | 23.52845 | 46.82292 | 36999 ft | 506 kts | 97° |
| 2026-04-18 16:07 | 23.52136 | 46.89927 | 37000 ft | 506 kts | 97° |
| 2026-04-18 16:08 | 23.51428 | 46.97505 | 37000 ft | 506 kts | 97° |
| 2026-04-18 16:08 | 23.50712 | 47.05134 | 37000 ft | 506 kts | 97° |
| 2026-04-18 16:09 | 23.49992 | 47.12761 | 37000 ft | 506 kts | 97° |
| 2026-04-18 16:09 | 23.49268 | 47.20393 | 37000 ft | 506 kts | 97° |
| 2026-04-18 16:10 | 23.48538 | 47.28040 | 37000 ft | 506 kts | 98° |
| 2026-04-18 16:10 | 23.47807 | 47.35668 | 37000 ft | 506 kts | 98° |
| 2026-04-18 16:11 | 23.47075 | 47.43264 | 37000 ft | 506 kts | 98° |
| 2026-04-18 16:11 | 23.46334 | 47.50910 | 37000 ft | 506 kts | 98° |
| 2026-04-18 16:12 | 23.45592 | 47.58543 | 37000 ft | 506 kts | 98° |
| 2026-04-18 16:12 | 23.44844 | 47.66184 | 37000 ft | 507 kts | 98° |
| 2026-04-18 16:13 | 23.44097 | 47.73776 | 37000 ft | 507 kts | 98° |
| 2026-04-18 16:13 | 23.43341 | 47.81425 | 37000 ft | 507 kts | 98° |
| 2026-04-18 16:14 | 23.42584 | 47.89056 | 37000 ft | 507 kts | 98° |
| 2026-04-18 16:14 | 23.41822 | 47.96687 | 37000 ft | 507 kts | 98° |
| 2026-04-18 16:15 | 23.40678 | 48.08084 | 37000 ft | 507 kts | 98° |
| 2026-04-18 16:16 | 23.39907 | 48.15716 | 37000 ft | 507 kts | 98° |
| 2026-04-18 16:16 | 23.39131 | 48.23354 | 37000 ft | 507 kts | 98° |
| 2026-04-18 16:17 | 23.38222 | 48.30967 | 37007 ft | 507 kts | 104° |
| 2026-04-18 16:17 | 23.35646 | 48.38071 | 36996 ft | 506 kts | 122° |
| 2026-04-18 16:18 | 23.32050 | 48.44475 | 36999 ft | 506 kts | 124° |
| 2026-04-18 16:18 | 23.28526 | 48.50393 | 37000 ft | 506 kts | 125° |
| 2026-04-18 16:19 | 23.24699 | 48.56821 | 37000 ft | 506 kts | 124° |
| 2026-04-18 16:19 | 23.20893 | 48.63270 | 37000 ft | 506 kts | 124° |
| 2026-04-18 16:20 | 23.17101 | 48.69716 | 37000 ft | 506 kts | 124° |
| 2026-04-18 16:20 | 23.13306 | 48.76165 | 37000 ft | 506 kts | 124° |
| 2026-04-18 16:21 | 23.09503 | 48.82615 | 37000 ft | 506 kts | 124° |
| 2026-04-18 16:21 | 23.05702 | 48.89052 | 37000 ft | 506 kts | 124° |
| 2026-04-18 16:22 | 23.01900 | 48.95482 | 37000 ft | 506 kts | 124° |
| 2026-04-18 16:22 | 22.98113 | 49.01879 | 37000 ft | 506 kts | 124° |
| 2026-04-18 16:23 | 22.94279 | 49.08347 | 37000 ft | 506 kts | 124° |
| 2026-04-18 16:23 | 22.88578 | 49.17951 | 36984 ft | 507 kts | 124° |
| 2026-04-18 16:24 | 22.86646 | 49.21197 | 36591 ft | 516 kts | 124° |
| 2026-04-18 16:24 | 22.84678 | 49.24504 | 36120 ft | 526 kts | 124° |
| 2026-04-18 16:24 | 22.83359 | 49.26721 | 35815 ft | 532 kts | 124° |
| 2026-04-18 16:24 | 22.81337 | 49.30122 | 35339 ft | 541 kts | 124° |
| 2026-04-18 16:25 | 22.79292 | 49.33566 | 34870 ft | 547 kts | 124° |
| 2026-04-18 16:25 | 22.76551 | 49.38180 | 33974 ft | 548 kts | 124° |
| 2026-04-18 16:25 | 22.75149 | 49.40539 | 33329 ft | 549 kts | 124° |
| 2026-04-18 16:25 | 22.73106 | 49.43976 | 32277 ft | 549 kts | 124° |
| 2026-04-18 16:26 | 22.71098 | 49.47475 | 31516 ft | 543 kts | 121° |
| 2026-04-18 16:26 | 22.69438 | 49.51099 | 31118 ft | 534 kts | 114° |
| 2026-04-18 16:26 | 22.68222 | 49.54898 | 31005 ft | 535 kts | 106° |
| 2026-04-18 16:26 | 22.67392 | 49.58831 | 30999 ft | 537 kts | 102° |
| 2026-04-18 16:27 | 22.66139 | 49.66818 | 31000 ft | 538 kts | 99° |
| 2026-04-18 16:27 | 22.65061 | 49.74826 | 31000 ft | 538 kts | 99° |
| 2026-04-18 16:28 | 22.63966 | 49.82843 | 31000 ft | 537 kts | 99° |
| 2026-04-18 16:28 | 22.62834 | 49.90865 | 31000 ft | 537 kts | 100° |
| 2026-04-18 16:29 | 22.61696 | 49.98814 | 31000 ft | 537 kts | 100° |
| 2026-04-18 16:29 | 22.60544 | 50.06814 | 31000 ft | 537 kts | 100° |
| 2026-04-18 16:30 | 22.59394 | 50.14789 | 31000 ft | 537 kts | 100° |
| 2026-04-18 16:30 | 22.58235 | 50.22797 | 31000 ft | 537 kts | 100° |
| 2026-04-18 16:31 | 22.57094 | 50.30653 | 31000 ft | 537 kts | 100° |
| 2026-04-18 16:31 | 22.55938 | 50.38593 | 31000 ft | 537 kts | 100° |
| 2026-04-18 16:32 | 22.54770 | 50.46578 | 31000 ft | 537 kts | 100° |
| 2026-04-18 16:32 | 22.53599 | 50.54561 | 31000 ft | 537 kts | 100° |
| 2026-04-18 16:33 | 22.52422 | 50.62551 | 31000 ft | 537 kts | 100° |
| 2026-04-18 16:33 | 22.51240 | 50.70549 | 31000 ft | 537 kts | 100° |
| 2026-04-18 16:34 | 22.50056 | 50.78534 | 31000 ft | 537 kts | 100° |
| 2026-04-18 16:34 | 22.48869 | 50.86506 | 31000 ft | 537 kts | 100° |
| 2026-04-18 16:35 | 22.47676 | 50.94493 | 31000 ft | 537 kts | 100° |